Wetterdaten: Mittwoch, 15.07.2015
Datum Zeit Temp. Aussen +5cm Feuchte Auss BlattFeu 1 Luftdruck Regen Sonnenschein Regendauer Solar Windben
15.07.2015 00:00 17,8 C 16,1 C 92 % 1 lf 1019,0 hPa 0,0 l/m 0 min 0 min 0 W/m 10,5 km/h (2 Bft)
15.07.2015 00:02 17,8 C 16,1 C 92 % 1 lf 1019,0 hPa 0,0 l/m 0 min 0 min 0 W/m 4,2 km/h (1 Bft)
15.07.2015 00:05 17,8 C 16,1 C 92 % 1 lf 1019,0 hPa 0,0 l/m 0 min 0 min 0 W/m 6,3 km/h (2 Bft)
15.07.2015 00:06 17,8 C 16,1 C 92 % 2 lf 1019,0 hPa 0,0 l/m 0 min 0 min 0 W/m 6,3 km/h (2 Bft)
15.07.2015 00:08 17,8 C 16,1 C 92 % 2 lf 1019,0 hPa 0,0 l/m 0 min 0 min 0 W/m 6,3 km/h (2 Bft)
15.07.2015 00:10 17,7 C 16,1 C 92 % 2 lf 1019,0 hPa 0,0 l/m 0 min 0 min 0 W/m 6,3 km/h (2 Bft)
15.07.2015 00:12 17,7 C 15,6 C 92 % 1 lf 1019,0 hPa 0,0 l/m 0 min 0 min 0 W/m 4,2 km/h (1 Bft)
15.07.2015 00:14 17,7 C 15,6 C 92 % 2 lf 1019,0 hPa 0,0 l/m 0 min 0 min 0 W/m 4,2 km/h (1 Bft)
15.07.2015 00:16 17,7 C 15,6 C 92 % 1 lf 1019,0 hPa 0,0 l/m 0 min 0 min 0 W/m 2,1 km/h (1 Bft)
15.07.2015 00:18 17,7 C 15,6 C 92 % 1 lf 1019,0 hPa 0,0 l/m 0 min 0 min 0 W/m 2,1 km/h (1 Bft)
15.07.2015 00:20 17,7 C 15,6 C 92 % 1 lf 1019,0 hPa 0,0 l/m 0 min 0 min 0 W/m 6,3 km/h (2 Bft)
15.07.2015 00:22 17,6 C 15,6 C 92 % 1 lf 1019,0 hPa 0,0 l/m 0 min 0 min 0 W/m 4,2 km/h (1 Bft)
15.07.2015 00:24 17,6 C 15,6 C 92 % 1 lf 1019,0 hPa 0,0 l/m 0 min 0 min 0 W/m 2,1 km/h (1 Bft)
15.07.2015 00:26 17,6 C 15,0 C 92 % 1 lf 1019,0 hPa 0,0 l/m 0 min 0 min 0 W/m 2,1 km/h (1 Bft)
15.07.2015 00:28 17,6 C 15,0 C 92 % 1 lf 1019,0 hPa 0,0 l/m 0 min 0 min 0 W/m 4,2 km/h (1 Bft)
15.07.2015 00:30 17,6 C 15,0 C 92 % 1 lf 1019,0 hPa 0,0 l/m 0 min 0 min 0 W/m 4,2 km/h (1 Bft)
15.07.2015 00:32 17,5 C 15,0 C 92 % 1 lf 1018,9 hPa 0,0 l/m 0 min 0 min 0 W/m 2,1 km/h (1 Bft)
15.07.2015 00:34 17,5 C 15,0 C 92 % 1 lf 1019,0 hPa 0,0 l/m 0 min 0 min 0 W/m 2,1 km/h (1 Bft)
15.07.2015 00:36 17,4 C 15,0 C 92 % 1 lf 1019,0 hPa 0,0 l/m 0 min 0 min 0 W/m 4,2 km/h (1 Bft)
15.07.2015 00:38 17,4 C 15,6 C 92 % 1 lf 1019,0 hPa 0,0 l/m 0 min 0 min 0 W/m 4,2 km/h (1 Bft)
15.07.2015 00:40 17,4 C 15,6 C 92 % 1 lf 1019,0 hPa 0,0 l/m 0 min 0 min 0 W/m 4,2 km/h (1 Bft)
15.07.2015 00:42 17,4 C 15,6 C 92 % 1 lf 1019,1 hPa 0,0 l/m 0 min 0 min 0 W/m 4,2 km/h (1 Bft)
15.07.2015 00:44 17,3 C 15,6 C 92 % 1 lf 1019,0 hPa 0,0 l/m 0 min 0 min 0 W/m 8,4 km/h (2 Bft)
15.07.2015 00:46 17,3 C 15,6 C 92 % 1 lf 1019,1 hPa 0,0 l/m 0 min 0 min 0 W/m 6,3 km/h (2 Bft)
15.07.2015 00:48 17,3 C 15,6 C 92 % 1 lf 1019,1 hPa 0,0 l/m 0 min 0 min 0 W/m 4,2 km/h (1 Bft)
15.07.2015 00:50 17,3 C 15,6 C 92 % 1 lf 1019,1 hPa 0,0 l/m 0 min 0 min 0 W/m 4,2 km/h (1 Bft)
15.07.2015 00:52 17,2 C 15,6 C 92 % 1 lf 1019,1 hPa 0,0 l/m 0 min 0 min 0 W/m 6,3 km/h (2 Bft)
15.07.2015 00:54 17,2 C 15,6 C 92 % 1 lf 1019,1 hPa 0,0 l/m 0 min 0 min 0 W/m 6,3 km/h (2 Bft)
15.07.2015 00:56 17,2 C 15,6 C 92 % 1 lf 1019,1 hPa 0,0 l/m 0 min 0 min 0 W/m 6,3 km/h (2 Bft)
15.07.2015 00:58 17,2 C 15,6 C 92 % 1 lf 1019,1 hPa 0,0 l/m 0 min 0 min 0 W/m 6,3 km/h (2 Bft)
15.07.2015 01:00 17,2 C 15,6 C 92 % 1 lf 1019,1 hPa 0,0 l/m 0 min 0 min 0 W/m 8,4 km/h (2 Bft)
15.07.2015 01:02 17,2 C 15,6 C 92 % 1 lf 1019,1 hPa 0,0 l/m 0 min 0 min 0 W/m 6,3 km/h (2 Bft)
15.07.2015 01:04 17,1 C 15,6 C 92 % 1 lf 1019,1 hPa 0,0 l/m 0 min 0 min 0 W/m 6,3 km/h (2 Bft)
15.07.2015 01:06 17,1 C 15,6 C 92 % 1 lf 1019,1 hPa 0,0 l/m 0 min 0 min 0 W/m 6,3 km/h (2 Bft)
15.07.2015 01:08 17,1 C 15,6 C 93 % 1 lf 1019,1 hPa 0,0 l/m 0 min 0 min 0 W/m 6,3 km/h (2 Bft)
15.07.2015 01:10 17,1 C 15,6 C 93 % 1 lf 1019,1 hPa 0,0 l/m 0 min 0 min 0 W/m 10,5 km/h (2 Bft)
15.07.2015 01:12 17,1 C 15,6 C 93 % 1 lf 1019,1 hPa 0,0 l/m 0 min 0 min 0 W/m 14,6 km/h (3 Bft)
15.07.2015 01:14 17,1 C 15,6 C 93 % 1 lf 1019,1 hPa 0,0 l/m 0 min 0 min 0 W/m 8,4 km/h (2 Bft)
15.07.2015 01:16 17,1 C 15,6 C 93 % 1 lf 1019,1 hPa 0,0 l/m 0 min 0 min 0 W/m 10,5 km/h (2 Bft)
15.07.2015 01:18 17,1 C 16,1 C 93 % 1 lf 1019,0 hPa 0,0 l/m 0 min 0 min 0 W/m 12,6 km/h (3 Bft)
15.07.2015 01:20 17,1 C 16,1 C 93 % 1 lf 1019,0 hPa 0,0 l/m 0 min 0 min 0 W/m 10,5 km/h (2 Bft)
15.07.2015 01:22 17,1 C 16,1 C 93 % 1 lf 1019,0 hPa 0,0 l/m 0 min 0 min 0 W/m 10,5 km/h (2 Bft)
15.07.2015 01:24 17,1 C 16,1 C 93 % 1 lf 1019,0 hPa 0,0 l/m 0 min 0 min 0 W/m 12,6 km/h (3 Bft)
15.07.2015 01:26 17,1 C 16,1 C 93 % 1 lf 1019,0 hPa 0,0 l/m 0 min 0 min 0 W/m 8,4 km/h (2 Bft)
15.07.2015 01:28 17,1 C 16,1 C 94 % 1 lf 1019,1 hPa 0,0 l/m 0 min 0 min 0 W/m 10,5 km/h (2 Bft)
15.07.2015 01:30 17,1 C 16,1 C 94 % 1 lf 1019,1 hPa 0,0 l/m 0 min 0 min 0 W/m 8,4 km/h (2 Bft)
15.07.2015 01:32 17,1 C 16,1 C 94 % 1 lf 1019,1 hPa 0,0 l/m 0 min 0 min 0 W/m 6,3 km/h (2 Bft)
15.07.2015 01:34 17,1 C 16,1 C 94 % 1 lf 1019,1 hPa 0,0 l/m 0 min 0 min 0 W/m 8,4 km/h (2 Bft)
15.07.2015 01:36 17,1 C 16,1 C 94 % 1 lf 1019,1 hPa 0,0 l/m 0 min 0 min 0 W/m 6,3 km/h (2 Bft)
15.07.2015 01:38 17,1 C 16,1 C 94 % 2 lf 1019,1 hPa 0,0 l/m 0 min 0 min 0 W/m 6,3 km/h (2 Bft)
15.07.2015 01:40 17,1 C 16,1 C 94 % 2 lf 1019,1 hPa 0,0 l/m 0 min 0 min 0 W/m 6,3 km/h (2 Bft)
15.07.2015 01:42 17,1 C 15,6 C 94 % 2 lf 1019,2 hPa 0,0 l/m 0 min 0 min 0 W/m 8,4 km/h (2 Bft)
15.07.2015 01:44 17,1 C 15,6 C 94 % 1 lf 1019,2 hPa 0,0 l/m 0 min 0 min 0 W/m 4,2 km/h (1 Bft)
15.07.2015 01:46 17,1 C 15,6 C 94 % 1 lf 1019,2 hPa 0,0 l/m 0 min 0 min 0 W/m 8,4 km/h (2 Bft)
15.07.2015 01:48 17,1 C 16,1 C 94 % 1 lf 1019,2 hPa 0,0 l/m 0 min 0 min 0 W/m 8,4 km/h (2 Bft)
15.07.2015 01:50 17,1 C 16,1 C 94 % 1 lf 1019,2 hPa 0,0 l/m 0 min 0 min 0 W/m 6,3 km/h (2 Bft)
15.07.2015 01:52 17,1 C 16,1 C 94 % 1 lf 1019,2 hPa 0,0 l/m 0 min 0 min 0 W/m 8,4 km/h (2 Bft)
15.07.2015 01:54 17,1 C 16,1 C 94 % 1 lf 1019,2 hPa 0,0 l/m 0 min 0 min 0 W/m 8,4 km/h (2 Bft)
15.07.2015 01:56 17,1 C 16,1 C 94 % 1 lf 1019,2 hPa 0,0 l/m 0 min 0 min 0 W/m 6,3 km/h (2 Bft)
15.07.2015 01:58 17,1 C 16,1 C 94 % 1 lf 1019,2 hPa 0,0 l/m 0 min 0 min 0 W/m 8,4 km/h (2 Bft)
15.07.2015 02:00 17,1 C 16,1 C 94 % 1 lf 1019,2 hPa 0,0 l/m 0 min 0 min 0 W/m 6,3 km/h (2 Bft)
15.07.2015 02:02 17,1 C 16,1 C 94 % 1 lf 1019,2 hPa 0,0 l/m 0 min 0 min 0 W/m 4,2 km/h (1 Bft)
15.07.2015 02:04 17,1 C 16,1 C 94 % 1 lf 1019,2 hPa 0,0 l/m 0 min 0 min 0 W/m 6,3 km/h (2 Bft)
15.07.2015 02:06 17,1 C 16,1 C 94 % 1 lf 1019,2 hPa 0,0 l/m 0 min 0 min 0 W/m 8,4 km/h (2 Bft)
15.07.2015 02:08 17,1 C 16,1 C 94 % 1 lf 1019,2 hPa 0,0 l/m 0 min 0 min 0 W/m 4,2 km/h (1 Bft)
15.07.2015 02:10 17,1 C 16,1 C 94 % 1 lf 1019,1 hPa 0,0 l/m 0 min 0 min 0 W/m 8,4 km/h (2 Bft)
15.07.2015 02:12 17,1 C 16,1 C 94 % 1 lf 1019,2 hPa 0,0 l/m 0 min 0 min 0 W/m 6,3 km/h (2 Bft)
15.07.2015 02:14 17,1 C 16,1 C 94 % 1 lf 1019,1 hPa 0,0 l/m 0 min 0 min 0 W/m 8,4 km/h (2 Bft)
15.07.2015 02:16 17,1 C 16,1 C 95 % 1 lf 1019,2 hPa 0,0 l/m 0 min 0 min 0 W/m 6,3 km/h (2 Bft)
15.07.2015 02:18 17,1 C 16,1 C 95 % 1 lf 1019,2 hPa 0,0 l/m 0 min 0 min 0 W/m 4,2 km/h (1 Bft)
15.07.2015 02:20 17,1 C 16,1 C 95 % 1 lf 1019,2 hPa 0,0 l/m 0 min 0 min 0 W/m 6,3 km/h (2 Bft)
15.07.2015 02:22 17,1 C 16,1 C 95 % 1 lf 1019,2 hPa 0,0 l/m 0 min 0 min 0 W/m 8,4 km/h (2 Bft)
15.07.2015 02:24 17,1 C 16,1 C 95 % 1 lf 1019,2 hPa 0,0 l/m 0 min 0 min 0 W/m 8,4 km/h (2 Bft)
15.07.2015 02:26 17,1 C 16,1 C 95 % 1 lf 1019,2 hPa 0,0 l/m 0 min 0 min 0 W/m 12,6 km/h (3 Bft)
15.07.2015 02:28 17,1 C 16,1 C 95 % 1 lf 1019,2 hPa 0,0 l/m 0 min 0 min 0 W/m 8,4 km/h (2 Bft)
15.07.2015 02:30 17,1 C 16,1 C 95 % 1 lf 1019,1 hPa 0,0 l/m 0 min 0 min 0 W/m 6,3 km/h (2 Bft)
15.07.2015 02:32 17,1 C 16,1 C 95 % 1 lf 1019,1 hPa 0,0 l/m 0 min 0 min 0 W/m 6,3 km/h (2 Bft)
15.07.2015 02:34 17,1 C 16,1 C 95 % 1 lf 1019,2 hPa 0,0 l/m 0 min 0 min 0 W/m 6,3 km/h (2 Bft)
15.07.2015 02:36 17,1 C 16,1 C 95 % 1 lf 1019,2 hPa 0,0 l/m 0 min 0 min 0 W/m 8,4 km/h (2 Bft)
15.07.2015 02:38 17,2 C 16,1 C 95 % 1 lf 1019,2 hPa 0,0 l/m 0 min 0 min 0 W/m 8,4 km/h (2 Bft)
15.07.2015 02:40 17,2 C 16,1 C 95 % 1 lf 1019,2 hPa 0,0 l/m 0 min 0 min 0 W/m 6,3 km/h (2 Bft)
15.07.2015 02:42 17,1 C 16,1 C 95 % 1 lf 1019,2 hPa 0,0 l/m 0 min 0 min 0 W/m 8,4 km/h (2 Bft)
15.07.2015 02:44 17,2 C 16,1 C 95 % 1 lf 1019,2 hPa 0,0 l/m 0 min 0 min 0 W/m 6,3 km/h (2 Bft)
15.07.2015 02:46 17,2 C 16,1 C 95 % 1 lf 1019,2 hPa 0,0 l/m 0 min 0 min 0 W/m 6,3 km/h (2 Bft)
15.07.2015 02:48 17,2 C 16,1 C 95 % 1 lf 1019,2 hPa 0,0 l/m 0 min 0 min 0 W/m 4,2 km/h (1 Bft)
15.07.2015 02:50 17,1 C 16,1 C 95 % 1 lf 1019,2 hPa 0,0 l/m 0 min 0 min 0 W/m 4,2 km/h (1 Bft)
15.07.2015 02:52 17,2 C 16,1 C 95 % 1 lf 1019,2 hPa 0,0 l/m 0 min 0 min 0 W/m 8,4 km/h (2 Bft)
15.07.2015 02:54 17,2 C 16,1 C 95 % 1 lf 1019,2 hPa 0,0 l/m 0 min 0 min 0 W/m 6,3 km/h (2 Bft)
15.07.2015 02:56 17,2 C 16,1 C 95 % 1 lf 1019,2 hPa 0,0 l/m 0 min 0 min 0 W/m 4,2 km/h (1 Bft)
15.07.2015 02:58 17,2 C 16,1 C 95 % 1 lf 1019,1 hPa 0,0 l/m 0 min 0 min 0 W/m 4,2 km/h (1 Bft)
15.07.2015 03:00 17,2 C 16,1 C 95 % 1 lf 1019,2 hPa 0,0 l/m 0 min 0 min 0 W/m 6,3 km/h (2 Bft)
15.07.2015 03:02 17,2 C 16,1 C 95 % 1 lf 1019,1 hPa 0,0 l/m 0 min 0 min 0 W/m 4,2 km/h (1 Bft)
15.07.2015 03:04 17,2 C 16,1 C 95 % 1 lf 1019,1 hPa 0,0 l/m 0 min 0 min 0 W/m 4,2 km/h (1 Bft)
15.07.2015 03:06 17,2 C 16,1 C 95 % 1 lf 1019,1 hPa 0,0 l/m 0 min 0 min 0 W/m 8,4 km/h (2 Bft)
15.07.2015 03:08 17,2 C 16,1 C 95 % 1 lf 1019,2 hPa 0,0 l/m 0 min 0 min 0 W/m 4,2 km/h (1 Bft)
15.07.2015 03:10 17,2 C 16,1 C 95 % 1 lf 1019,2 hPa 0,0 l/m 0 min 0 min 0 W/m 6,3 km/h (2 Bft)
15.07.2015 03:12 17,2 C 16,1 C 95 % 1 lf 1019,1 hPa 0,0 l/m 0 min 0 min 0 W/m 8,4 km/h (2 Bft)
15.07.2015 03:14 17,2 C 16,1 C 95 % 1 lf 1019,2 hPa 0,0 l/m 0 min 0 min 0 W/m 2,1 km/h (1 Bft)
15.07.2015 03:16 17,2 C 16,1 C 95 % 1 lf 1019,2 hPa 0,0 l/m 0 min 0 min 0 W/m 6,3 km/h (2 Bft)
15.07.2015 03:18 17,2 C 16,1 C 95 % 1 lf 1019,2 hPa 0,0 l/m 0 min 0 min 0 W/m 4,2 km/h (1 Bft)
15.07.2015 03:20 17,2 C 16,1 C 95 % 1 lf 1019,3 hPa 0,0 l/m 0 min 0 min 0 W/m 6,3 km/h (2 Bft)
15.07.2015 03:22 17,2 C 16,1 C 95 % 1 lf 1019,2 hPa 0,0 l/m 0 min 0 min 0 W/m 4,2 km/h (1 Bft)
15.07.2015 03:24 17,2 C 16,1 C 95 % 1 lf 1019,2 hPa 0,0 l/m 0 min 0 min 0 W/m 4,2 km/h (1 Bft)
15.07.2015 03:26 17,2 C 16,1 C 95 % 1 lf 1019,2 hPa 0,0 l/m 0 min 0 min 0 W/m 8,4 km/h (2 Bft)
15.07.2015 03:28 17,2 C 16,1 C 95 % 1 lf 1019,2 hPa 0,0 l/m 0 min 0 min 0 W/m 4,2 km/h (1 Bft)
15.07.2015 03:30 17,2 C 16,1 C 95 % 1 lf 1019,2 hPa 0,0 l/m 0 min 0 min 0 W/m 6,3 km/h (2 Bft)
15.07.2015 03:32 17,1 C 16,1 C 95 % 1 lf 1019,2 hPa 0,0 l/m 0 min 0 min 0 W/m 8,4 km/h (2 Bft)
15.07.2015 03:34 17,2 C 16,1 C 95 % 1 lf 1019,2 hPa 0,0 l/m 0 min 0 min 0 W/m 4,2 km/h (1 Bft)
15.07.2015 03:36 17,2 C 16,1 C 95 % 1 lf 1019,2 hPa 0,0 l/m 0 min 0 min 0 W/m 6,3 km/h (2 Bft)
15.07.2015 03:38 17,2 C 16,1 C 95 % 1 lf 1019,2 hPa 0,0 l/m 0 min 0 min 0 W/m 2,1 km/h (1 Bft)
15.07.2015 03:40 17,2 C 16,1 C 95 % 1 lf 1019,2 hPa 0,0 l/m 0 min 0 min 0 W/m 2,1 km/h (1 Bft)
15.07.2015 03:42 17,2 C 16,1 C 95 % 1 lf 1019,2 hPa 0,0 l/m 0 min 0 min 0 W/m 4,2 km/h (1 Bft)
15.07.2015 03:44 17,2 C 16,1 C 95 % 1 lf 1019,2 hPa 0,0 l/m 0 min 0 min 0 W/m 4,2 km/h (1 Bft)
15.07.2015 03:46 17,2 C 16,1 C 95 % 1 lf 1019,2 hPa 0,0 l/m 0 min 0 min 0 W/m 2,1 km/h (1 Bft)
15.07.2015 03:48 17,2 C 16,1 C 95 % 1 lf 1019,2 hPa 0,0 l/m 0 min 0 min 0 W/m 4,2 km/h (1 Bft)
15.07.2015 03:50 17,2 C 16,1 C 95 % 1 lf 1019,1 hPa 0,0 l/m 0 min 0 min 0 W/m 6,3 km/h (2 Bft)
15.07.2015 03:52 17,2 C 16,1 C 95 % 1 lf 1019,2 hPa 0,0 l/m 0 min 0 min 0 W/m 4,2 km/h (1 Bft)
15.07.2015 03:54 17,2 C 16,1 C 95 % 1 lf 1019,2 hPa 0,0 l/m 0 min 0 min 0 W/m 4,2 km/h (1 Bft)
15.07.2015 03:56 17,2 C 16,1 C 95 % 1 lf 1019,2 hPa 0,0 l/m 0 min 0 min 0 W/m 4,2 km/h (1 Bft)
15.07.2015 03:58 17,2 C 16,1 C 95 % 1 lf 1019,2 hPa 0,0 l/m 0 min 0 min 0 W/m 4,2 km/h (1 Bft)
15.07.2015 04:00 17,2 C 16,1 C 95 % 1 lf 1019,2 hPa 0,0 l/m 0 min 0 min 0 W/m 4,2 km/h (1 Bft)
15.07.2015 04:02 17,2 C 16,1 C 95 % 1 lf 1019,2 hPa 0,0 l/m 0 min 0 min 0 W/m 4,2 km/h (1 Bft)
15.07.2015 04:04 17,2 C 16,1 C 95 % 1 lf 1019,2 hPa 0,0 l/m 0 min 0 min 0 W/m 4,2 km/h (1 Bft)
15.07.2015 04:06 17,1 C 16,1 C 95 % 1 lf 1019,2 hPa 0,0 l/m 0 min 0 min 0 W/m 6,3 km/h (2 Bft)
15.07.2015 04:08 17,1 C 16,1 C 95 % 1 lf 1019,2 hPa 0,0 l/m 0 min 0 min 0 W/m 6,3 km/h (2 Bft)
15.07.2015 04:10 17,1 C 16,1 C 95 % 1 lf 1019,2 hPa 0,0 l/m 0 min 0 min 0 W/m 4,2 km/h (1 Bft)
15.07.2015 04:12 17,1 C 16,1 C 95 % 1 lf 1019,3 hPa 0,0 l/m 0 min 0 min 0 W/m 6,3 km/h (2 Bft)
15.07.2015 04:14 17,1 C 16,1 C 95 % 1 lf 1019,2 hPa 0,0 l/m 0 min 0 min 0 W/m 4,2 km/h (1 Bft)
15.07.2015 04:16 17,1 C 16,1 C 95 % 1 lf 1019,2 hPa 0,0 l/m 0 min 0 min 0 W/m 6,3 km/h (2 Bft)
15.07.2015 04:18 17,1 C 16,1 C 95 % 1 lf 1019,1 hPa 0,0 l/m 0 min 0 min 0 W/m 8,4 km/h (2 Bft)
15.07.2015 04:20 17,1 C 16,1 C 95 % 1 lf 1019,1 hPa 0,0 l/m 0 min 0 min 0 W/m 6,3 km/h (2 Bft)
15.07.2015 04:22 17,1 C 16,1 C 95 % 1 lf 1019,1 hPa 0,0 l/m 0 min 0 min 0 W/m 6,3 km/h (2 Bft)
15.07.2015 04:24 17,1 C 16,1 C 95 % 1 lf 1019,1 hPa 0,0 l/m 0 min 0 min 0 W/m 6,3 km/h (2 Bft)
15.07.2015 04:26 17,1 C 16,1 C 95 % 1 lf 1019,1 hPa 0,0 l/m 0 min 0 min 0 W/m 6,3 km/h (2 Bft)
15.07.2015 04:28 17,1 C 16,1 C 95 % 1 lf 1019,1 hPa 0,0 l/m 0 min 0 min 0 W/m 2,1 km/h (1 Bft)
15.07.2015 04:30 17,1 C 16,1 C 95 % 1 lf 1019,1 hPa 0,0 l/m 0 min 0 min 0 W/m 4,2 km/h (1 Bft)
15.07.2015 04:32 17,1 C 16,1 C 95 % 1 lf 1019,1 hPa 0,0 l/m 0 min 0 min 0 W/m 6,3 km/h (2 Bft)
15.07.2015 04:34 17,1 C 16,1 C 95 % 1 lf 1019,1 hPa 0,0 l/m 0 min 0 min 0 W/m 4,2 km/h (1 Bft)
15.07.2015 04:36 17,1 C 16,1 C 95 % 1 lf 1019,1 hPa 0,0 l/m 0 min 0 min 0 W/m 4,2 km/h (1 Bft)
15.07.2015 04:38 17,1 C 16,1 C 95 % 1 lf 1019,1 hPa 0,0 l/m 0 min 0 min 0 W/m 4,2 km/h (1 Bft)
15.07.2015 04:40 17,1 C 16,1 C 95 % 1 lf 1019,1 hPa 0,0 l/m 0 min 0 min 0 W/m 2,1 km/h (1 Bft)
15.07.2015 04:42 17,1 C 16,1 C 95 % 1 lf 1019,1 hPa 0,0 l/m 0 min 0 min 0 W/m 4,2 km/h (1 Bft)
15.07.2015 04:44 17,1 C 16,1 C 95 % 1 lf 1019,1 hPa 0,0 l/m 0 min 0 min 0 W/m 4,2 km/h (1 Bft)
15.07.2015 04:46 17,1 C 16,1 C 95 % 1 lf 1019,1 hPa 0,0 l/m 0 min 0 min 0 W/m 4,2 km/h (1 Bft)
15.07.2015 04:48 17,1 C 16,1 C 95 % 1 lf 1019,1 hPa 0,0 l/m 0 min 0 min 0 W/m 4,2 km/h (1 Bft)
15.07.2015 04:50 17,1 C 16,1 C 95 % 1 lf 1019,1 hPa 0,0 l/m 0 min 0 min 0 W/m 2,1 km/h (1 Bft)
15.07.2015 04:52 17,1 C 16,1 C 94 % 1 lf 1019,1 hPa 0,0 l/m 0 min 0 min 0 W/m 2,1 km/h (1 Bft)
15.07.2015 04:54 17,1 C 16,1 C 95 % 1 lf 1019,1 hPa 0,0 l/m 0 min 0 min 0 W/m 2,1 km/h (1 Bft)
15.07.2015 04:56 17,1 C 16,1 C 94 % 1 lf 1019,1 hPa 0,0 l/m 0 min 0 min 0 W/m 2,1 km/h (1 Bft)
15.07.2015 04:58 17,1 C 15,6 C 94 % 1 lf 1019,1 hPa 0,0 l/m 0 min 0 min 0 W/m 2,1 km/h (1 Bft)
15.07.2015 05:00 17,1 C 15,6 C 94 % 1 lf 1019,1 hPa 0,0 l/m 0 min 0 min 0 W/m 4,2 km/h (1 Bft)
15.07.2015 05:02 17,1 C 15,6 C 94 % 1 lf 1019,1 hPa 0,0 l/m 0 min 0 min 0 W/m 0,0 km/h (0 Bft)
15.07.2015 05:04 17,1 C 15,6 C 94 % 1 lf 1019,1 hPa 0,0 l/m 0 min 0 min 0 W/m 2,1 km/h (1 Bft)
15.07.2015 05:06 17,1 C 15,6 C 94 % 1 lf 1019,0 hPa 0,0 l/m 0 min 0 min 0 W/m 2,1 km/h (1 Bft)
15.07.2015 05:08 17,1 C 15,6 C 94 % 1 lf 1019,1 hPa 0,0 l/m 0 min 0 min 0 W/m 2,1 km/h (1 Bft)
15.07.2015 05:10 17,1 C 15,6 C 94 % 1 lf 1019,1 hPa 0,0 l/m 0 min 0 min 0 W/m 2,1 km/h (1 Bft)
15.07.2015 05:12 17,1 C 15,6 C 94 % 1 lf 1019,1 hPa 0,0 l/m 0 min 0 min 0 W/m 4,2 km/h (1 Bft)
15.07.2015 05:14 17,0 C 15,6 C 94 % 1 lf 1019,1 hPa 0,0 l/m 0 min 0 min 0 W/m 4,2 km/h (1 Bft)
15.07.2015 05:16 17,0 C 15,6 C 94 % 1 lf 1019,1 hPa 0,0 l/m 0 min 0 min 0 W/m 4,2 km/h (1 Bft)
15.07.2015 05:18 17,0 C 15,6 C 94 % 1 lf 1019,1 hPa 0,0 l/m 0 min 0 min 0 W/m 2,1 km/h (1 Bft)
15.07.2015 05:20 17,0 C 16,1 C 94 % 1 lf 1019,1 hPa 0,0 l/m 0 min 0 min 0 W/m 4,2 km/h (1 Bft)
15.07.2015 05:22 17,0 C 16,1 C 94 % 1 lf 1019,1 hPa 0,0 l/m 0 min 0 min 0 W/m 4,2 km/h (1 Bft)
15.07.2015 05:24 17,0 C 16,1 C 94 % 1 lf 1019,1 hPa 0,0 l/m 0 min 0 min 0 W/m 4,2 km/h (1 Bft)
15.07.2015 05:26 17,0 C 16,1 C 94 % 1 lf 1019,1 hPa 0,0 l/m 0 min 0 min 0 W/m 4,2 km/h (1 Bft)
15.07.2015 05:28 17,0 C 16,1 C 94 % 1 lf 1019,1 hPa 0,0 l/m 0 min 0 min 0 W/m 2,1 km/h (1 Bft)
15.07.2015 05:30 17,0 C 16,1 C 94 % 1 lf 1019,1 hPa 0,0 l/m 0 min 0 min 0 W/m 2,1 km/h (1 Bft)
15.07.2015 05:32 17,0 C 16,1 C 94 % 1 lf 1019,1 hPa 0,0 l/m 0 min 0 min 1 W/m 2,1 km/h (1 Bft)
15.07.2015 05:34 17,0 C 15,6 C 94 % 1 lf 1019,0 hPa 0,0 l/m 0 min 0 min 5 W/m 2,1 km/h (1 Bft)
15.07.2015 05:36 17,0 C 15,6 C 94 % 1 lf 1019,1 hPa 0,0 l/m 0 min 0 min 1 W/m 2,1 km/h (1 Bft)
15.07.2015 05:38 17,0 C 15,6 C 94 % 1 lf 1019,0 hPa 0,0 l/m 0 min 0 min 3 W/m 2,1 km/h (1 Bft)
15.07.2015 05:40 17,0 C 15,6 C 94 % 1 lf 1019,0 hPa 0,0 l/m 0 min 0 min 5 W/m 4,2 km/h (1 Bft)
15.07.2015 05:42 17,0 C 15,6 C 94 % 1 lf 1019,0 hPa 0,0 l/m 0 min 0 min 5 W/m 4,2 km/h (1 Bft)
15.07.2015 05:44 17,0 C 15,6 C 95 % 1 lf 1019,0 hPa 0,0 l/m 0 min 0 min 5 W/m 4,2 km/h (1 Bft)
15.07.2015 05:46 17,0 C 15,6 C 95 % 1 lf 1019,0 hPa 0,0 l/m 0 min 0 min 5 W/m 4,2 km/h (1 Bft)
15.07.2015 05:48 17,0 C 15,6 C 95 % 1 lf 1019,0 hPa 0,0 l/m 0 min 0 min 7 W/m 4,2 km/h (1 Bft)
15.07.2015 05:50 17,0 C 15,6 C 95 % 1 lf 1019,0 hPa 0,0 l/m 0 min 0 min 7 W/m 4,2 km/h (1 Bft)
15.07.2015 05:52 17,0 C 16,1 C 95 % 1 lf 1019,1 hPa 0,0 l/m 0 min 0 min 7 W/m 2,1 km/h (1 Bft)
15.07.2015 05:54 17,0 C 16,1 C 95 % 1 lf 1019,1 hPa 0,0 l/m 0 min 0 min 7 W/m 2,1 km/h (1 Bft)
15.07.2015 05:56 17,0 C 16,1 C 95 % 1 lf 1019,1 hPa 0,0 l/m 0 min 0 min 7 W/m 4,2 km/h (1 Bft)
15.07.2015 05:58 17,0 C 16,1 C 95 % 1 lf 1019,1 hPa 0,0 l/m 0 min 0 min 7 W/m 4,2 km/h (1 Bft)
15.07.2015 06:00 16,9 C 16,1 C 95 % 1 lf 1019,2 hPa 0,0 l/m 0 min 0 min 7 W/m 4,2 km/h (1 Bft)
15.07.2015 06:02 17,0 C 16,1 C 95 % 1 lf 1019,2 hPa 0,0 l/m 0 min 0 min 7 W/m 4,2 km/h (1 Bft)
15.07.2015 06:05 17,0 C 16,1 C 95 % 1 lf 1019,1 hPa 0,0 l/m 0 min 0 min 9 W/m 4,2 km/h (1 Bft)
15.07.2015 06:06 17,0 C 16,1 C 95 % 1 lf 1019,2 hPa 0,0 l/m 0 min 0 min 8 W/m 6,3 km/h (2 Bft)
15.07.2015 06:08 16,9 C 16,1 C 95 % 1 lf 1019,2 hPa 0,0 l/m 0 min 0 min 9 W/m 4,2 km/h (1 Bft)
15.07.2015 06:10 16,9 C 16,1 C 95 % 1 lf 1019,2 hPa 0,0 l/m 0 min 0 min 10 W/m 6,3 km/h (2 Bft)
15.07.2015 06:12 16,9 C 16,1 C 95 % 1 lf 1019,2 hPa 0,0 l/m 0 min 0 min 9 W/m 6,3 km/h (2 Bft)
15.07.2015 06:14 16,9 C 16,1 C 95 % 1 lf 1019,2 hPa 0,0 l/m 0 min 0 min 11 W/m 6,3 km/h (2 Bft)
15.07.2015 06:16 16,9 C 16,1 C 95 % 1 lf 1019,1 hPa 0,0 l/m 0 min 0 min 12 W/m 4,2 km/h (1 Bft)
15.07.2015 06:18 16,9 C 16,1 C 95 % 1 lf 1019,2 hPa 0,0 l/m 0 min 0 min 12 W/m 4,2 km/h (1 Bft)
15.07.2015 06:20 17,0 C 16,1 C 95 % 1 lf 1019,2 hPa 0,0 l/m 0 min 0 min 13 W/m 6,3 km/h (2 Bft)
15.07.2015 06:22 17,0 C 16,1 C 95 % 1 lf 1019,1 hPa 0,0 l/m 0 min 0 min 15 W/m 4,2 km/h (1 Bft)
15.07.2015 06:24 17,0 C 16,1 C 95 % 1 lf 1019,2 hPa 0,0 l/m 0 min 0 min 16 W/m 4,2 km/h (1 Bft)
15.07.2015 06:26 17,0 C 16,1 C 95 % 1 lf 1019,2 hPa 0,0 l/m 0 min 0 min 15 W/m 4,2 km/h (1 Bft)
15.07.2015 06:28 17,0 C 16,1 C 95 % 1 lf 1019,1 hPa 0,0 l/m 0 min 0 min 13 W/m 4,2 km/h (1 Bft)
15.07.2015 06:30 17,0 C 16,1 C 95 % 1 lf 1019,2 hPa 0,0 l/m 0 min 0 min 12 W/m 4,2 km/h (1 Bft)
15.07.2015 06:32 17,0 C 16,1 C 95 % 1 lf 1019,2 hPa 0,0 l/m 0 min 0 min 13 W/m 4,2 km/h (1 Bft)
15.07.2015 06:34 17,0 C 16,1 C 95 % 1 lf 1019,2 hPa 0,0 l/m 0 min 0 min 14 W/m 4,2 km/h (1 Bft)
15.07.2015 06:36 17,0 C 16,1 C 95 % 1 lf 1019,2 hPa 0,0 l/m 0 min 0 min 14 W/m 2,1 km/h (1 Bft)
15.07.2015 06:38 17,0 C 16,1 C 95 % 1 lf 1019,2 hPa 0,0 l/m 0 min 0 min 14 W/m 4,2 km/h (1 Bft)
15.07.2015 06:40 17,0 C 16,1 C 95 % 1 lf 1019,2 hPa 0,0 l/m 0 min 0 min 16 W/m 4,2 km/h (1 Bft)
15.07.2015 06:42 17,0 C 16,1 C 95 % 1 lf 1019,3 hPa 0,0 l/m 0 min 0 min 19 W/m 4,2 km/h (1 Bft)
15.07.2015 06:44 17,0 C 16,1 C 95 % 1 lf 1019,2 hPa 0,0 l/m 0 min 0 min 21 W/m 4,2 km/h (1 Bft)
15.07.2015 06:46 17,0 C 16,1 C 95 % 1 lf 1019,2 hPa 0,0 l/m 0 min 0 min 20 W/m 4,2 km/h (1 Bft)
15.07.2015 06:48 17,0 C 16,1 C 95 % 1 lf 1019,2 hPa 0,0 l/m 0 min 0 min 18 W/m 6,3 km/h (2 Bft)
15.07.2015 06:50 17,0 C 16,1 C 95 % 1 lf 1019,2 hPa 0,0 l/m 0 min 0 min 19 W/m 4,2 km/h (1 Bft)
15.07.2015 06:52 17,1 C 16,1 C 95 % 1 lf 1019,2 hPa 0,0 l/m 0 min 0 min 23 W/m 6,3 km/h (2 Bft)
15.07.2015 06:54 17,1 C 16,1 C 95 % 1 lf 1019,1 hPa 0,0 l/m 0 min 0 min 26 W/m 4,2 km/h (1 Bft)
15.07.2015 06:56 17,1 C 16,1 C 95 % 1 lf 1019,2 hPa 0,0 l/m 0 min 0 min 28 W/m 2,1 km/h (1 Bft)
15.07.2015 06:58 17,1 C 16,1 C 95 % 1 lf 1019,2 hPa 0,0 l/m 0 min 0 min 28 W/m 2,1 km/h (1 Bft)
15.07.2015 07:00 17,1 C 16,1 C 95 % 0 lf 1019,2 hPa 0,0 l/m 0 min 0 min 29 W/m 2,1 km/h (1 Bft)
15.07.2015 07:02 17,1 C 16,1 C 95 % 1 lf 1019,2 hPa 0,0 l/m 0 min 0 min 32 W/m 2,1 km/h (1 Bft)
15.07.2015 07:04 17,1 C 16,1 C 95 % 0 lf 1019,2 hPa 0,0 l/m 0 min 0 min 35 W/m 2,1 km/h (1 Bft)
15.07.2015 07:06 17,1 C 16,1 C 95 % 0 lf 1019,1 hPa 0,0 l/m 0 min 0 min 35 W/m 6,3 km/h (2 Bft)
15.07.2015 07:08 17,1 C 16,7 C 95 % 0 lf 1019,1 hPa 0,0 l/m 0 min 0 min 33 W/m 4,2 km/h (1 Bft)
15.07.2015 07:10 17,1 C 16,7 C 95 % 0 lf 1019,1 hPa 0,0 l/m 0 min 0 min 33 W/m 6,3 km/h (2 Bft)
15.07.2015 07:12 17,1 C 16,7 C 95 % 0 lf 1019,2 hPa 0,0 l/m 0 min 0 min 35 W/m 4,2 km/h (1 Bft)
15.07.2015 07:14 17,1 C 16,7 C 95 % 0 lf 1019,1 hPa 0,0 l/m 0 min 0 min 38 W/m 2,1 km/h (1 Bft)
15.07.2015 07:16 17,2 C 16,7 C 95 % 0 lf 1019,2 hPa 0,0 l/m 0 min 0 min 39 W/m 2,1 km/h (1 Bft)
15.07.2015 07:18 17,2 C 16,7 C 95 % 0 lf 1019,2 hPa 0,0 l/m 0 min 0 min 39 W/m 4,2 km/h (1 Bft)
15.07.2015 07:20 17,2 C 16,7 C 95 % 0 lf 1019,2 hPa 0,0 l/m 0 min 0 min 40 W/m 6,3 km/h (2 Bft)
15.07.2015 07:22 17,2 C 16,7 C 95 % 0 lf 1019,1 hPa 0,0 l/m 0 min 0 min 39 W/m 4,2 km/h (1 Bft)
15.07.2015 07:24 17,2 C 16,7 C 95 % 0 lf 1019,1 hPa 0,0 l/m 0 min 0 min 40 W/m 6,3 km/h (2 Bft)
15.07.2015 07:26 17,2 C 16,7 C 95 % 0 lf 1019,1 hPa 0,0 l/m 0 min 0 min 46 W/m 4,2 km/h (1 Bft)
15.07.2015 07:28 17,2 C 16,7 C 95 % 0 lf 1019,1 hPa 0,0 l/m 0 min 0 min 52 W/m 2,1 km/h (1 Bft)
15.07.2015 07:30 17,2 C 16,7 C 95 % 0 lf 1019,1 hPa 0,0 l/m 0 min 0 min 59 W/m 4,2 km/h (1 Bft)
15.07.2015 07:32 17,2 C 16,7 C 95 % 0 lf 1019,1 hPa 0,0 l/m 0 min 0 min 62 W/m 6,3 km/h (2 Bft)
15.07.2015 07:34 17,3 C 16,7 C 95 % 0 lf 1019,1 hPa 0,0 l/m 0 min 0 min 63 W/m 4,2 km/h (1 Bft)
15.07.2015 07:36 17,3 C 16,7 C 95 % 0 lf 1019,1 hPa 0,0 l/m 0 min 0 min 65 W/m 6,3 km/h (2 Bft)
15.07.2015 07:38 17,3 C 16,7 C 95 % 0 lf 1019,1 hPa 0,0 l/m 0 min 0 min 70 W/m 4,2 km/h (1 Bft)
15.07.2015 07:40 17,3 C 17,2 C 95 % 0 lf 1019,1 hPa 0,0 l/m 0 min 0 min 74 W/m 6,3 km/h (2 Bft)
15.07.2015 07:42 17,4 C 17,2 C 95 % 0 lf 1019,1 hPa 0,0 l/m 0 min 0 min 66 W/m 4,2 km/h (1 Bft)
15.07.2015 07:44 17,4 C 17,2 C 95 % 0 lf 1019,1 hPa 0,0 l/m 0 min 0 min 63 W/m 4,2 km/h (1 Bft)
15.07.2015 07:46 17,4 C 17,2 C 95 % 0 lf 1019,1 hPa 0,0 l/m 0 min 0 min 68 W/m 6,3 km/h (2 Bft)
15.07.2015 07:48 17,4 C 17,2 C 95 % 0 lf 1019,1 hPa 0,0 l/m 0 min 0 min 72 W/m 4,2 km/h (1 Bft)
15.07.2015 07:50 17,4 C 17,2 C 95 % 0 lf 1019,1 hPa 0,0 l/m 0 min 0 min 77 W/m 8,4 km/h (2 Bft)
15.07.2015 07:52 17,5 C 17,2 C 95 % 0 lf 1019,1 hPa 0,0 l/m 0 min 0 min 84 W/m 8,4 km/h (2 Bft)
15.07.2015 07:54 17,5 C 17,2 C 95 % 0 lf 1019,1 hPa 0,0 l/m 0 min 0 min 93 W/m 6,3 km/h (2 Bft)
15.07.2015 07:56 17,5 C 17,2 C 95 % 0 lf 1019,1 hPa 0,0 l/m 0 min 0 min 101 W/m 6,3 km/h (2 Bft)
15.07.2015 07:58 17,6 C 17,2 C 95 % 0 lf 1019,1 hPa 0,0 l/m 0 min 0 min 109 W/m 6,3 km/h (2 Bft)
15.07.2015 08:00 17,6 C 17,2 C 95 % 0 lf 1019,1 hPa 0,0 l/m 0 min 0 min 111 W/m 6,3 km/h (2 Bft)
15.07.2015 08:02 17,6 C 17,2 C 95 % 0 lf 1019,1 hPa 0,0 l/m 0 min 0 min 113 W/m 6,3 km/h (2 Bft)
15.07.2015 08:04 17,6 C 17,8 C 95 % 0 lf 1019,1 hPa 0,0 l/m 0 min 0 min 113 W/m 6,3 km/h (2 Bft)
15.07.2015 08:06 17,7 C 17,8 C 95 % 0 lf 1019,1 hPa 0,0 l/m 0 min 0 min 105 W/m 12,6 km/h (3 Bft)
15.07.2015 08:08 17,7 C 17,2 C 95 % 0 lf 1019,2 hPa 0,0 l/m 0 min 0 min 94 W/m 8,4 km/h (2 Bft)
15.07.2015 08:10 17,7 C 17,2 C 95 % 0 lf 1019,2 hPa 0,0 l/m 0 min 0 min 98 W/m 8,4 km/h (2 Bft)
15.07.2015 08:12 17,7 C 17,2 C 95 % 0 lf 1019,1 hPa 0,0 l/m 0 min 0 min 110 W/m 10,5 km/h (2 Bft)
15.07.2015 08:14 17,8 C 17,2 C 95 % 0 lf 1019,2 hPa 0,0 l/m 0 min 0 min 111 W/m 6,3 km/h (2 Bft)
15.07.2015 08:16 17,8 C 17,8 C 94 % 0 lf 1019,1 hPa 0,0 l/m 0 min 0 min 103 W/m 8,4 km/h (2 Bft)
15.07.2015 08:18 17,8 C 17,8 C 94 % 0 lf 1019,2 hPa 0,0 l/m 0 min 0 min 99 W/m 14,6 km/h (3 Bft)
15.07.2015 08:20 17,8 C 17,2 C 94 % 0 lf 1019,2 hPa 0,0 l/m 0 min 0 min 105 W/m 6,3 km/h (2 Bft)
15.07.2015 08:22 17,8 C 17,8 C 94 % 0 lf 1019,2 hPa 0,0 l/m 0 min 0 min 110 W/m 10,5 km/h (2 Bft)
15.07.2015 08:24 17,9 C 17,2 C 94 % 0 lf 1019,2 hPa 0,0 l/m 0 min 0 min 116 W/m 8,4 km/h (2 Bft)
15.07.2015 08:26 17,9 C 17,8 C 94 % 0 lf 1019,2 hPa 0,0 l/m 0 min 0 min 121 W/m 6,3 km/h (2 Bft)
15.07.2015 08:28 17,9 C 17,8 C 94 % 0 lf 1019,2 hPa 0,0 l/m 0 min 0 min 121 W/m 6,3 km/h (2 Bft)
15.07.2015 08:30 17,9 C 17,8 C 93 % 0 lf 1019,1 hPa 0,0 l/m 0 min 0 min 126 W/m 10,5 km/h (2 Bft)
15.07.2015 08:32 18,0 C 17,8 C 93 % 0 lf 1019,2 hPa 0,0 l/m 0 min 0 min 131 W/m 6,3 km/h (2 Bft)
15.07.2015 08:34 18,1 C 17,8 C 93 % 0 lf 1019,2 hPa 0,0 l/m 0 min 0 min 134 W/m 6,3 km/h (2 Bft)
15.07.2015 08:36 18,1 C 17,8 C 93 % 0 lf 1019,2 hPa 0,0 l/m 0 min 0 min 138 W/m 6,3 km/h (2 Bft)
15.07.2015 08:38 18,1 C 17,8 C 93 % 0 lf 1019,1 hPa 0,0 l/m 0 min 0 min 136 W/m 10,5 km/h (2 Bft)
15.07.2015 08:40 18,1 C 17,8 C 93 % 0 lf 1019,2 hPa 0,0 l/m 0 min 0 min 133 W/m 10,5 km/h (2 Bft)
15.07.2015 08:42 18,2 C 17,8 C 93 % 0 lf 1019,2 hPa 0,0 l/m 0 min 0 min 131 W/m 8,4 km/h (2 Bft)
15.07.2015 08:44 18,2 C 17,8 C 93 % 0 lf 1019,2 hPa 0,0 l/m 0 min 0 min 116 W/m 10,5 km/h (2 Bft)
15.07.2015 08:46 18,2 C 17,8 C 92 % 0 lf 1019,2 hPa 0,0 l/m 0 min 0 min 119 W/m 8,4 km/h (2 Bft)
15.07.2015 08:48 18,2 C 17,8 C 92 % 0 lf 1019,2 hPa 0,0 l/m 0 min 0 min 121 W/m 10,5 km/h (2 Bft)
15.07.2015 08:50 18,2 C 17,8 C 92 % 0 lf 1019,2 hPa 0,0 l/m 0 min 0 min 116 W/m 8,4 km/h (2 Bft)
15.07.2015 08:52 18,3 C 17,8 C 92 % 0 lf 1019,2 hPa 0,0 l/m 0 min 0 min 127 W/m 6,3 km/h (2 Bft)
15.07.2015 08:54 18,3 C 17,8 C 92 % 0 lf 1019,2 hPa 0,0 l/m 0 min 0 min 145 W/m 8,4 km/h (2 Bft)
15.07.2015 08:56 18,3 C 18,3 C 92 % 0 lf 1019,3 hPa 0,0 l/m 0 min 0 min 160 W/m 6,3 km/h (2 Bft)
15.07.2015 08:58 18,4 C 18,3 C 92 % 0 lf 1019,2 hPa 0,0 l/m 0 min 0 min 176 W/m 6,3 km/h (2 Bft)
15.07.2015 09:00 18,4 C 18,3 C 92 % 0 lf 1019,2 hPa 0,0 l/m 0 min 0 min 199 W/m 8,4 km/h (2 Bft)
15.07.2015 09:02 18,5 C 18,9 C 92 % 0 lf 1019,2 hPa 0,0 l/m 0 min 0 min 207 W/m 10,5 km/h (2 Bft)
15.07.2015 09:04 18,5 C 18,9 C 92 % 0 lf 1019,2 hPa 0,0 l/m 0 min 0 min 190 W/m 8,4 km/h (2 Bft)
15.07.2015 09:06 18,6 C 18,9 C 92 % 0 lf 1019,2 hPa 0,0 l/m 0 min 0 min 175 W/m 10,5 km/h (2 Bft)
15.07.2015 09:08 18,6 C 18,3 C 91 % 0 lf 1019,2 hPa 0,0 l/m 0 min 0 min 170 W/m 10,5 km/h (2 Bft)
15.07.2015 09:10 18,6 C 18,3 C 91 % 0 lf 1019,3 hPa 0,0 l/m 0 min 0 min 174 W/m 10,5 km/h (2 Bft)
15.07.2015 09:12 18,7 C 18,9 C 91 % 0 lf 1019,2 hPa 0,0 l/m 0 min 0 min 183 W/m 10,5 km/h (2 Bft)
15.07.2015 09:14 18,7 C 18,3 C 91 % 0 lf 1019,2 hPa 0,0 l/m 0 min 0 min 197 W/m 12,6 km/h (3 Bft)
15.07.2015 09:16 18,8 C 18,9 C 91 % 0 lf 1019,2 hPa 0,0 l/m 0 min 0 min 215 W/m 10,5 km/h (2 Bft)
15.07.2015 09:18 18,8 C 18,9 C 90 % 0 lf 1019,2 hPa 0,0 l/m 0 min 0 min 229 W/m 8,4 km/h (2 Bft)
15.07.2015 09:20 18,8 C 18,9 C 90 % 0 lf 1019,2 hPa 0,0 l/m 0 min 0 min 223 W/m 8,4 km/h (2 Bft)
15.07.2015 09:22 18,9 C 18,9 C 90 % 0 lf 1019,2 hPa 0,0 l/m 0 min 0 min 210 W/m 8,4 km/h (2 Bft)
15.07.2015 09:24 19,0 C 18,9 C 90 % 0 lf 1019,1 hPa 0,0 l/m 0 min 0 min 220 W/m 10,5 km/h (2 Bft)
15.07.2015 09:26 19,0 C 18,9 C 90 % 0 lf 1019,1 hPa 0,0 l/m 0 min 0 min 236 W/m 6,3 km/h (2 Bft)
15.07.2015 09:28 19,1 C 18,9 C 90 % 0 lf 1019,1 hPa 0,0 l/m 2 min 0 min 267 W/m 10,5 km/h (2 Bft)
15.07.2015 09:30 19,1 C 19,4 C 89 % 0 lf 1019,1 hPa 0,0 l/m 2 min 0 min 333 W/m 4,2 km/h (1 Bft)
15.07.2015 09:32 19,2 C 19,4 C 89 % 0 lf 1019,1 hPa 0,0 l/m 2 min 0 min 379 W/m 12,6 km/h (3 Bft)
15.07.2015 09:34 19,2 C 19,4 C 89 % 0 lf 1019,1 hPa 0,0 l/m 2 min 0 min 307 W/m 8,4 km/h (2 Bft)
15.07.2015 09:36 19,3 C 19,4 C 88 % 0 lf 1019,1 hPa 0,0 l/m 2 min 0 min 312 W/m 8,4 km/h (2 Bft)
15.07.2015 09:38 19,3 C 19,4 C 88 % 0 lf 1019,0 hPa 0,0 l/m 2 min 0 min 283 W/m 8,4 km/h (2 Bft)
15.07.2015 09:40 19,4 C 20,0 C 88 % 0 lf 1019,1 hPa 0,0 l/m 2 min 0 min 283 W/m 10,5 km/h (2 Bft)
15.07.2015 09:42 19,4 C 20,0 C 87 % 0 lf 1019,1 hPa 0,0 l/m 0 min 0 min 256 W/m 8,4 km/h (2 Bft)
15.07.2015 09:44 19,5 C 19,4 C 87 % 0 lf 1019,1 hPa 0,0 l/m 0 min 0 min 251 W/m 12,6 km/h (3 Bft)
15.07.2015 09:46 19,5 C 19,4 C 86 % 0 lf 1019,1 hPa 0,0 l/m 0 min 0 min 227 W/m 12,6 km/h (3 Bft)
15.07.2015 09:48 19,6 C 19,4 C 86 % 0 lf 1019,1 hPa 0,0 l/m 0 min 0 min 199 W/m 10,5 km/h (2 Bft)
15.07.2015 09:50 19,6 C 19,4 C 86 % 0 lf 1019,1 hPa 0,0 l/m 0 min 0 min 210 W/m 6,3 km/h (2 Bft)
15.07.2015 09:52 19,7 C 19,4 C 86 % 0 lf 1019,1 hPa 0,0 l/m 0 min 0 min 264 W/m 8,4 km/h (2 Bft)
15.07.2015 09:54 19,7 C 19,4 C 86 % 0 lf 1019,0 hPa 0,0 l/m 2 min 0 min 303 W/m 8,4 km/h (2 Bft)
15.07.2015 09:56 19,7 C 19,4 C 85 % 0 lf 1019,1 hPa 0,0 l/m 2 min 0 min 329 W/m 14,6 km/h (3 Bft)
15.07.2015 09:58 19,8 C 20,0 C 85 % 0 lf 1019,1 hPa 0,0 l/m 2 min 0 min 369 W/m 10,5 km/h (2 Bft)
15.07.2015 10:00 19,9 C 20,0 C 85 % 0 lf 1019,1 hPa 0,0 l/m 2 min 0 min 329 W/m 14,6 km/h (3 Bft)
15.07.2015 10:02 19,9 C 20,0 C 84 % 0 lf 1019,1 hPa 0,0 l/m 2 min 0 min 311 W/m 18,8 km/h (3 Bft)
15.07.2015 10:04 19,9 C 20,0 C 84 % 0 lf 1019,1 hPa 0,0 l/m 2 min 0 min 311 W/m 16,7 km/h (3 Bft)
15.07.2015 10:06 20,0 C 20,0 C 83 % 0 lf 1019,0 hPa 0,0 l/m 2 min 0 min 333 W/m 16,7 km/h (3 Bft)
15.07.2015 10:08 20,1 C 20,0 C 84 % 0 lf 1019,1 hPa 0,0 l/m 0 min 0 min 290 W/m 12,6 km/h (3 Bft)
15.07.2015 10:10 20,1 C 20,0 C 83 % 0 lf 1019,1 hPa 0,0 l/m 0 min 0 min 221 W/m 18,8 km/h (3 Bft)
15.07.2015 10:12 20,1 C 19,4 C 83 % 0 lf 1019,1 hPa 0,0 l/m 0 min 0 min 195 W/m 12,6 km/h (3 Bft)
15.07.2015 10:14 20,1 C 19,4 C 82 % 0 lf 1019,1 hPa 0,0 l/m 0 min 0 min 196 W/m 10,5 km/h (2 Bft)
15.07.2015 10:16 20,2 C 19,4 C 82 % 0 lf 1019,0 hPa 0,0 l/m 0 min 0 min 217 W/m 8,4 km/h (2 Bft)
15.07.2015 10:18 20,2 C 20,0 C 83 % 0 lf 1019,1 hPa 0,0 l/m 0 min 0 min 267 W/m 10,5 km/h (2 Bft)
15.07.2015 10:20 20,3 C 20,0 C 83 % 0 lf 1019,1 hPa 0,0 l/m 0 min 0 min 301 W/m 8,4 km/h (2 Bft)
15.07.2015 10:22 20,3 C 20,6 C 83 % 0 lf 1019,1 hPa 0,0 l/m 2 min 0 min 323 W/m 12,6 km/h (3 Bft)
15.07.2015 10:24 20,4 C 20,6 C 83 % 0 lf 1019,1 hPa 0,0 l/m 2 min 0 min 334 W/m 14,6 km/h (3 Bft)
15.07.2015 10:26 20,4 C 20,0 C 83 % 0 lf 1019,0 hPa 0,0 l/m 0 min 0 min 257 W/m 16,7 km/h (3 Bft)
15.07.2015 10:28 20,4 C 20,0 C 81 % 0 lf 1019,0 hPa 0,0 l/m 0 min 0 min 191 W/m 12,6 km/h (3 Bft)
15.07.2015 10:30 20,4 C 19,4 C 81 % 0 lf 1019,0 hPa 0,0 l/m 0 min 0 min 152 W/m 8,4 km/h (2 Bft)
15.07.2015 10:32 20,4 C 19,4 C 81 % 0 lf 1019,0 hPa 0,0 l/m 0 min 0 min 146 W/m 10,5 km/h (2 Bft)
15.07.2015 10:34 20,5 C 19,4 C 81 % 0 lf 1019,0 hPa 0,0 l/m 0 min 0 min 191 W/m 8,4 km/h (2 Bft)
15.07.2015 10:36 20,5 C 20,0 C 82 % 0 lf 1019,0 hPa 0,0 l/m 0 min 0 min 258 W/m 10,5 km/h (2 Bft)
15.07.2015 10:38 20,6 C 20,0 C 81 % 0 lf 1019,0 hPa 0,0 l/m 0 min 0 min 252 W/m 10,5 km/h (2 Bft)
15.07.2015 10:40 20,6 C 20,0 C 81 % 0 lf 1019,0 hPa 0,0 l/m 0 min 0 min 230 W/m 12,6 km/h (3 Bft)
15.07.2015 10:42 20,6 C 20,0 C 81 % 0 lf 1019,0 hPa 0,0 l/m 0 min 0 min 235 W/m 12,6 km/h (3 Bft)
15.07.2015 10:44 20,6 C 20,0 C 81 % 0 lf 1019,0 hPa 0,0 l/m 0 min 0 min 263 W/m 10,5 km/h (2 Bft)
15.07.2015 10:46 20,7 C 20,0 C 81 % 0 lf 1019,1 hPa 0,0 l/m 0 min 0 min 265 W/m 12,6 km/h (3 Bft)
15.07.2015 10:48 20,7 C 20,0 C 81 % 0 lf 1019,0 hPa 0,0 l/m 0 min 0 min 229 W/m 12,6 km/h (3 Bft)
15.07.2015 10:50 20,7 C 20,0 C 80 % 0 lf 1019,0 hPa 0,0 l/m 0 min 0 min 205 W/m 8,4 km/h (2 Bft)
15.07.2015 10:52 20,8 C 20,0 C 81 % 0 lf 1019,0 hPa 0,0 l/m 0 min 0 min 230 W/m 8,4 km/h (2 Bft)
15.07.2015 10:54 20,8 C 20,6 C 81 % 0 lf 1019,0 hPa 0,0 l/m 0 min 0 min 313 W/m 12,6 km/h (3 Bft)
15.07.2015 10:56 20,9 C 21,7 C 81 % 0 lf 1019,0 hPa 0,0 l/m 2 min 0 min 399 W/m 14,6 km/h (3 Bft)
15.07.2015 10:58 20,9 C 22,2 C 80 % 0 lf 1019,0 hPa 0,0 l/m 2 min 0 min 399 W/m 12,6 km/h (3 Bft)
15.07.2015 11:00 21,1 C 22,2 C 80 % 0 lf 1019,0 hPa 0,0 l/m 2 min 0 min 443 W/m 12,6 km/h (3 Bft)
15.07.2015 11:02 21,1 C 21,7 C 79 % 0 lf 1019,0 hPa 0,0 l/m 2 min 0 min 358 W/m 6,3 km/h (2 Bft)
15.07.2015 11:04 21,2 C 21,1 C 79 % 0 lf 1018,9 hPa 0,0 l/m 0 min 0 min 270 W/m 8,4 km/h (2 Bft)
15.07.2015 11:06 21,2 C 21,1 C 78 % 0 lf 1018,9 hPa 0,0 l/m 0 min 0 min 263 W/m 12,6 km/h (3 Bft)
15.07.2015 11:08 21,3 C 21,1 C 78 % 0 lf 1018,9 hPa 0,0 l/m 0 min 0 min 284 W/m 10,5 km/h (2 Bft)
15.07.2015 11:10 21,4 C 21,1 C 78 % 0 lf 1018,9 hPa 0,0 l/m 0 min 0 min 315 W/m 8,4 km/h (2 Bft)
15.07.2015 11:12 21,4 C 21,1 C 78 % 0 lf 1018,9 hPa 0,0 l/m 2 min 0 min 386 W/m 10,5 km/h (2 Bft)
15.07.2015 11:14 21,5 C 22,8 C 78 % 0 lf 1018,9 hPa 0,0 l/m 2 min 0 min 561 W/m 12,6 km/h (3 Bft)
15.07.2015 11:16 21,6 C 23,9 C 77 % 0 lf 1018,9 hPa 0,0 l/m 2 min 0 min 805 W/m 10,5 km/h (2 Bft)
15.07.2015 11:18 21,7 C 23,9 C 77 % 0 lf 1018,9 hPa 0,0 l/m 2 min 0 min 788 W/m 10,5 km/h (2 Bft)
15.07.2015 11:20 21,8 C 22,8 C 77 % 0 lf 1018,9 hPa 0,0 l/m 2 min 0 min 658 W/m 10,5 km/h (2 Bft)
15.07.2015 11:22 21,9 C 22,2 C 75 % 0 lf 1018,9 hPa 0,0 l/m 0 min 0 min 353 W/m 12,6 km/h (3 Bft)
15.07.2015 11:24 21,9 C 21,7 C 75 % 0 lf 1018,9 hPa 0,0 l/m 0 min 0 min 356 W/m 12,6 km/h (3 Bft)
15.07.2015 11:26 22,0 C 21,7 C 74 % 0 lf 1018,9 hPa 0,0 l/m 0 min 0 min 344 W/m 14,6 km/h (3 Bft)
15.07.2015 11:28 22,1 C 21,7 C 74 % 0 lf 1019,0 hPa 0,0 l/m 0 min 0 min 285 W/m 16,7 km/h (3 Bft)
15.07.2015 11:30 22,1 C 21,1 C 74 % 0 lf 1019,0 hPa 0,0 l/m 0 min 0 min 270 W/m 16,7 km/h (3 Bft)
15.07.2015 11:32 22,1 C 21,1 C 73 % 0 lf 1019,0 hPa 0,0 l/m 0 min 0 min 329 W/m 20,9 km/h (4 Bft)
15.07.2015 11:34 22,1 C 21,1 C 73 % 0 lf 1019,0 hPa 0,0 l/m 0 min 0 min 368 W/m 12,6 km/h (3 Bft)
15.07.2015 11:36 22,1 C 21,7 C 74 % 0 lf 1019,0 hPa 0,0 l/m 2 min 0 min 421 W/m 12,6 km/h (3 Bft)
15.07.2015 11:38 22,2 C 21,7 C 74 % 0 lf 1018,9 hPa 0,0 l/m 0 min 0 min 349 W/m 14,6 km/h (3 Bft)
15.07.2015 11:40 22,2 C 21,1 C 73 % 0 lf 1018,9 hPa 0,0 l/m 0 min 0 min 316 W/m 16,7 km/h (3 Bft)
15.07.2015 11:42 22,2 C 22,2 C 74 % 0 lf 1018,9 hPa 0,0 l/m 0 min 0 min 381 W/m 10,5 km/h (2 Bft)
15.07.2015 11:44 22,3 C 23,9 C 76 % 0 lf 1018,9 hPa 0,0 l/m 2 min 0 min 755 W/m 6,3 km/h (2 Bft)
15.07.2015 11:46 22,4 C 25,0 C 75 % 0 lf 1018,8 hPa 0,0 l/m 2 min 0 min 840 W/m 10,5 km/h (2 Bft)
15.07.2015 11:48 22,6 C 26,1 C 75 % 0 lf 1018,9 hPa 0,0 l/m 2 min 0 min 861 W/m 12,6 km/h (3 Bft)
15.07.2015 11:50 22,8 C 26,7 C 76 % 0 lf 1018,9 hPa 0,0 l/m 2 min 0 min 860 W/m 16,7 km/h (3 Bft)
15.07.2015 11:52 22,9 C 27,2 C 73 % 0 lf 1018,9 hPa 0,0 l/m 2 min 0 min 865 W/m 14,6 km/h (3 Bft)
15.07.2015 11:54 23,1 C 27,2 C 72 % 0 lf 1018,9 hPa 0,0 l/m 2 min 0 min 888 W/m 14,6 km/h (3 Bft)
15.07.2015 11:56 23,2 C 26,7 C 72 % 0 lf 1018,9 hPa 0,0 l/m 2 min 0 min 860 W/m 23,0 km/h (4 Bft)
15.07.2015 11:58 23,4 C 26,1 C 70 % 0 lf 1018,9 hPa 0,0 l/m 2 min 0 min 837 W/m 23,0 km/h (4 Bft)
15.07.2015 12:00 23,5 C 26,1 C 71 % 0 lf 1018,9 hPa 0,0 l/m 2 min 0 min 840 W/m 18,8 km/h (3 Bft)
15.07.2015 12:02 23,6 C 26,1 C 69 % 0 lf 1018,8 hPa 0,0 l/m 2 min 0 min 840 W/m 14,6 km/h (3 Bft)
15.07.2015 12:05 23,8 C 27,2 C 69 % 0 lf 1018,8 hPa 0,0 l/m 2 min 0 min 933 W/m 14,6 km/h (3 Bft)
15.07.2015 12:06 23,8 C 26,7 C 69 % 0 lf 1018,8 hPa 0,0 l/m 1 min 0 min 907 W/m 16,7 km/h (3 Bft)
15.07.2015 12:08 23,9 C 27,2 C 69 % 0 lf 1018,8 hPa 0,0 l/m 2 min 0 min 821 W/m 14,6 km/h (3 Bft)
15.07.2015 12:10 24,0 C 27,2 C 67 % 0 lf 1018,8 hPa 0,0 l/m 2 min 0 min 586 W/m 16,7 km/h (3 Bft)
15.07.2015 12:12 24,1 C 26,7 C 68 % 0 lf 1018,8 hPa 0,0 l/m 2 min 0 min 729 W/m 18,8 km/h (3 Bft)
15.07.2015 12:14 24,2 C 26,7 C 67 % 0 lf 1018,8 hPa 0,0 l/m 2 min 0 min 655 W/m 20,9 km/h (4 Bft)
15.07.2015 12:16 24,2 C 26,1 C 67 % 0 lf 1018,8 hPa 0,0 l/m 2 min 0 min 575 W/m 14,6 km/h (3 Bft)
15.07.2015 12:18 24,3 C 25,0 C 66 % 0 lf 1018,8 hPa 0,0 l/m 2 min 0 min 510 W/m 18,8 km/h (3 Bft)
15.07.2015 12:20 24,3 C 24,4 C 66 % 0 lf 1018,8 hPa 0,0 l/m 2 min 0 min 545 W/m 29,3 km/h (5 Bft)
15.07.2015 12:22 24,3 C 24,4 C 66 % 0 lf 1018,8 hPa 0,0 l/m 2 min 0 min 514 W/m 23,0 km/h (4 Bft)
15.07.2015 12:24 24,3 C 23,9 C 66 % 0 lf 1018,8 hPa 0,0 l/m 2 min 0 min 504 W/m 16,7 km/h (3 Bft)
15.07.2015 12:26 24,3 C 23,9 C 67 % 0 lf 1018,7 hPa 0,0 l/m 2 min 0 min 472 W/m 12,6 km/h (3 Bft)
15.07.2015 12:28 24,3 C 23,3 C 67 % 0 lf 1018,8 hPa 0,0 l/m 2 min 0 min 426 W/m 23,0 km/h (4 Bft)
15.07.2015 12:30 24,3 C 23,9 C 67 % 0 lf 1018,8 hPa 0,0 l/m 2 min 0 min 450 W/m 16,7 km/h (3 Bft)
15.07.2015 12:32 24,3 C 23,9 C 67 % 0 lf 1018,8 hPa 0,0 l/m 2 min 0 min 498 W/m 20,9 km/h (4 Bft)
15.07.2015 12:34 24,3 C 23,9 C 67 % 0 lf 1018,8 hPa 0,0 l/m 2 min 0 min 487 W/m 16,7 km/h (3 Bft)
15.07.2015 12:36 24,3 C 23,9 C 67 % 0 lf 1018,8 hPa 0,0 l/m 2 min 0 min 446 W/m 18,8 km/h (3 Bft)
15.07.2015 12:38 24,2 C 23,9 C 66 % 0 lf 1018,7 hPa 0,0 l/m 2 min 0 min 467 W/m 12,6 km/h (3 Bft)
15.07.2015 12:40 24,2 C 23,9 C 67 % 0 lf 1018,6 hPa 0,0 l/m 2 min 0 min 491 W/m 14,6 km/h (3 Bft)
15.07.2015 12:42 24,2 C 23,9 C 68 % 0 lf 1018,6 hPa 0,0 l/m 2 min 0 min 486 W/m 12,6 km/h (3 Bft)
15.07.2015 12:44 24,2 C 24,4 C 68 % 0 lf 1018,5 hPa 0,0 l/m 2 min 0 min 490 W/m 14,6 km/h (3 Bft)
15.07.2015 12:46 24,2 C 25,6 C 68 % 0 lf 1018,5 hPa 0,0 l/m 2 min 0 min 972 W/m 20,9 km/h (4 Bft)
15.07.2015 12:48 24,3 C 25,0 C 68 % 0 lf 1018,5 hPa 0,0 l/m 2 min 0 min 677 W/m 20,9 km/h (4 Bft)
15.07.2015 12:50 24,3 C 25,0 C 68 % 0 lf 1018,5 hPa 0,0 l/m 2 min 0 min 511 W/m 16,7 km/h (3 Bft)
15.07.2015 12:52 24,4 C 24,4 C 68 % 0 lf 1018,6 hPa 0,0 l/m 2 min 0 min 465 W/m 16,7 km/h (3 Bft)
15.07.2015 12:54 24,4 C 24,4 C 67 % 0 lf 1018,6 hPa 0,0 l/m 2 min 0 min 441 W/m 14,6 km/h (3 Bft)
15.07.2015 12:56 24,5 C 23,9 C 68 % 0 lf 1018,5 hPa 0,0 l/m 0 min 0 min 407 W/m 10,5 km/h (2 Bft)
15.07.2015 12:58 24,6 C 23,3 C 67 % 0 lf 1018,4 hPa 0,0 l/m 0 min 0 min 351 W/m 10,5 km/h (2 Bft)
15.07.2015 13:00 24,6 C 23,3 C 67 % 0 lf 1018,4 hPa 0,0 l/m 0 min 0 min 327 W/m 16,7 km/h (3 Bft)
15.07.2015 13:02 24,6 C 23,3 C 67 % 0 lf 1018,4 hPa 0,0 l/m 0 min 0 min 314 W/m 16,7 km/h (3 Bft)
15.07.2015 13:04 24,6 C 22,8 C 67 % 0 lf 1018,4 hPa 0,0 l/m 0 min 0 min 319 W/m 10,5 km/h (2 Bft)
15.07.2015 13:06 24,6 C 23,3 C 67 % 0 lf 1018,4 hPa 0,0 l/m 0 min 0 min 367 W/m 14,6 km/h (3 Bft)
15.07.2015 13:08 24,5 C 23,3 C 67 % 0 lf 1018,4 hPa 0,0 l/m 0 min 0 min 347 W/m 18,8 km/h (3 Bft)
15.07.2015 13:10 24,5 C 23,3 C 68 % 0 lf 1018,3 hPa 0,0 l/m 0 min 0 min 314 W/m 12,6 km/h (3 Bft)
15.07.2015 13:12 24,5 C 22,8 C 67 % 0 lf 1018,3 hPa 0,0 l/m 0 min 0 min 281 W/m 14,6 km/h (3 Bft)
15.07.2015 13:14 24,4 C 22,8 C 66 % 0 lf 1018,3 hPa 0,0 l/m 0 min 0 min 257 W/m 14,6 km/h (3 Bft)
15.07.2015 13:16 24,4 C 22,8 C 67 % 0 lf 1018,2 hPa 0,0 l/m 0 min 0 min 251 W/m 20,9 km/h (4 Bft)
15.07.2015 13:18 24,3 C 22,8 C 68 % 0 lf 1018,2 hPa 0,0 l/m 0 min 0 min 290 W/m 14,6 km/h (3 Bft)
15.07.2015 13:20 24,3 C 22,8 C 67 % 0 lf 1018,2 hPa 0,0 l/m 0 min 0 min 323 W/m 14,6 km/h (3 Bft)
15.07.2015 13:22 24,2 C 22,8 C 67 % 0 lf 1018,2 hPa 0,0 l/m 0 min 0 min 316 W/m 10,5 km/h (2 Bft)
15.07.2015 13:24 24,2 C 22,8 C 68 % 0 lf 1018,1 hPa 0,0 l/m 0 min 0 min 290 W/m 10,5 km/h (2 Bft)
15.07.2015 13:26 24,2 C 22,8 C 68 % 0 lf 1018,1 hPa 0,0 l/m 0 min 0 min 271 W/m 12,6 km/h (3 Bft)
15.07.2015 13:28 24,2 C 22,8 C 68 % 0 lf 1018,1 hPa 0,0 l/m 0 min 0 min 282 W/m 12,6 km/h (3 Bft)
15.07.2015 13:30 24,2 C 23,3 C 68 % 0 lf 1018,0 hPa 0,0 l/m 0 min 0 min 331 W/m 10,5 km/h (2 Bft)
15.07.2015 13:32 24,1 C 23,3 C 68 % 0 lf 1018,1 hPa 0,0 l/m 0 min 0 min 347 W/m 8,4 km/h (2 Bft)
15.07.2015 13:34 24,2 C 23,3 C 68 % 0 lf 1018,1 hPa 0,0 l/m 0 min 0 min 335 W/m 12,6 km/h (3 Bft)
15.07.2015 13:36 24,2 C 23,3 C 68 % 0 lf 1018,1 hPa 0,0 l/m 0 min 0 min 338 W/m 20,9 km/h (4 Bft)
15.07.2015 13:38 24,2 C 22,8 C 69 % 0 lf 1018,1 hPa 0,0 l/m 0 min 0 min 287 W/m 12,6 km/h (3 Bft)
15.07.2015 13:40 24,2 C 22,8 C 69 % 0 lf 1018,1 hPa 0,0 l/m 0 min 0 min 279 W/m 18,8 km/h (3 Bft)
15.07.2015 13:42 24,2 C 22,8 C 68 % 0 lf 1018,0 hPa 0,0 l/m 0 min 0 min 305 W/m 25,1 km/h (4 Bft)
15.07.2015 13:44 24,2 C 22,8 C 68 % 0 lf 1018,0 hPa 0,0 l/m 0 min 0 min 366 W/m 20,9 km/h (4 Bft)
15.07.2015 13:46 24,1 C 23,3 C 69 % 0 lf 1018,0 hPa 0,0 l/m 2 min 0 min 428 W/m 16,7 km/h (3 Bft)
15.07.2015 13:48 24,1 C 23,3 C 69 % 0 lf 1018,0 hPa 0,0 l/m 2 min 0 min 431 W/m 18,8 km/h (3 Bft)
15.07.2015 13:50 24,2 C 23,3 C 69 % 0 lf 1017,9 hPa 0,0 l/m 0 min 0 min 416 W/m 14,6 km/h (3 Bft)
15.07.2015 13:52 24,2 C 23,9 C 70 % 0 lf 1017,8 hPa 0,0 l/m 2 min 0 min 448 W/m 8,4 km/h (2 Bft)
15.07.2015 13:54 24,3 C 24,4 C 69 % 0 lf 1017,8 hPa 0,0 l/m 2 min 0 min 569 W/m 10,5 km/h (2 Bft)
15.07.2015 13:56 24,3 C 24,4 C 69 % 0 lf 1017,8 hPa 0,0 l/m 2 min 0 min 488 W/m 16,7 km/h (3 Bft)
15.07.2015 13:58 24,4 C 24,4 C 69 % 0 lf 1017,8 hPa 0,0 l/m 0 min 0 min 385 W/m 12,6 km/h (3 Bft)
15.07.2015 14:00 24,5 C 23,9 C 69 % 0 lf 1017,8 hPa 0,0 l/m 0 min 0 min 307 W/m 12,6 km/h (3 Bft)
15.07.2015 14:02 24,5 C 23,9 C 68 % 0 lf 1017,8 hPa 0,0 l/m 0 min 0 min 279 W/m 12,6 km/h (3 Bft)
15.07.2015 14:04 24,5 C 23,3 C 68 % 0 lf 1017,8 hPa 0,0 l/m 0 min 0 min 280 W/m 16,7 km/h (3 Bft)
15.07.2015 14:06 24,5 C 23,3 C 68 % 0 lf 1017,9 hPa 0,0 l/m 0 min 0 min 283 W/m 16,7 km/h (3 Bft)
15.07.2015 14:08 24,5 C 23,3 C 68 % 0 lf 1017,8 hPa 0,0 l/m 0 min 0 min 292 W/m 18,8 km/h (3 Bft)
15.07.2015 14:10 24,5 C 23,3 C 68 % 0 lf 1017,8 hPa 0,0 l/m 0 min 0 min 344 W/m 14,6 km/h (3 Bft)
15.07.2015 14:12 24,6 C 23,9 C 69 % 0 lf 1017,8 hPa 0,0 l/m 0 min 0 min 408 W/m 14,6 km/h (3 Bft)
15.07.2015 14:14 24,6 C 23,9 C 69 % 0 lf 1017,8 hPa 0,0 l/m 2 min 0 min 449 W/m 12,6 km/h (3 Bft)
15.07.2015 14:16 24,6 C 24,4 C 70 % 0 lf 1017,8 hPa 0,0 l/m 2 min 0 min 474 W/m 16,7 km/h (3 Bft)
15.07.2015 14:18 24,7 C 24,4 C 69 % 0 lf 1017,8 hPa 0,0 l/m 0 min 0 min 414 W/m 16,7 km/h (3 Bft)
15.07.2015 14:20 24,7 C 24,4 C 68 % 0 lf 1017,8 hPa 0,0 l/m 0 min 0 min 341 W/m 14,6 km/h (3 Bft)
15.07.2015 14:22 24,7 C 23,9 C 68 % 0 lf 1017,7 hPa 0,0 l/m 0 min 0 min 310 W/m 20,9 km/h (4 Bft)
15.07.2015 14:24 24,7 C 23,9 C 68 % 0 lf 1017,8 hPa 0,0 l/m 0 min 0 min 300 W/m 14,6 km/h (3 Bft)
15.07.2015 14:26 24,7 C 23,3 C 67 % 0 lf 1017,8 hPa 0,0 l/m 0 min 0 min 322 W/m 18,8 km/h (3 Bft)
15.07.2015 14:28 24,7 C 23,3 C 67 % 0 lf 1017,8 hPa 0,0 l/m 0 min 0 min 343 W/m 18,8 km/h (3 Bft)
15.07.2015 14:30 24,7 C 23,3 C 67 % 0 lf 1017,8 hPa 0,0 l/m 0 min 0 min 339 W/m 14,6 km/h (3 Bft)
15.07.2015 14:32 24,6 C 23,3 C 67 % 0 lf 1017,7 hPa 0,0 l/m 0 min 0 min 317 W/m 16,7 km/h (3 Bft)
15.07.2015 14:34 24,6 C 23,3 C 68 % 0 lf 1017,8 hPa 0,0 l/m 0 min 0 min 306 W/m 10,5 km/h (2 Bft)
15.07.2015 14:36 24,6 C 23,3 C 68 % 0 lf 1017,8 hPa 0,0 l/m 0 min 0 min 289 W/m 12,6 km/h (3 Bft)
15.07.2015 14:38 24,6 C 23,3 C 69 % 0 lf 1017,7 hPa 0,0 l/m 0 min 0 min 288 W/m 14,6 km/h (3 Bft)
15.07.2015 14:40 24,6 C 23,3 C 70 % 0 lf 1017,7 hPa 0,0 l/m 0 min 0 min 355 W/m 10,5 km/h (2 Bft)
15.07.2015 14:42 24,6 C 23,9 C 69 % 0 lf 1017,7 hPa 0,0 l/m 2 min 0 min 446 W/m 12,6 km/h (3 Bft)
15.07.2015 14:44 24,6 C 23,9 C 69 % 0 lf 1017,7 hPa 0,0 l/m 2 min 0 min 475 W/m 16,7 km/h (3 Bft)
15.07.2015 14:46 24,6 C 24,4 C 70 % 0 lf 1017,6 hPa 0,0 l/m 2 min 0 min 434 W/m 16,7 km/h (3 Bft)
15.07.2015 14:48 24,6 C 24,4 C 69 % 0 lf 1017,7 hPa 0,0 l/m 2 min 0 min 438 W/m 18,8 km/h (3 Bft)
15.07.2015 14:50 24,7 C 24,4 C 69 % 0 lf 1017,6 hPa 0,0 l/m 2 min 0 min 511 W/m 12,6 km/h (3 Bft)
15.07.2015 14:52 24,7 C 24,4 C 68 % 0 lf 1017,7 hPa 0,0 l/m 2 min 0 min 476 W/m 12,6 km/h (3 Bft)
15.07.2015 14:54 24,8 C 24,4 C 68 % 0 lf 1017,7 hPa 0,0 l/m 0 min 0 min 403 W/m 12,6 km/h (3 Bft)
15.07.2015 14:56 24,8 C 24,4 C 68 % 0 lf 1017,7 hPa 0,0 l/m 0 min 0 min 356 W/m 16,7 km/h (3 Bft)
15.07.2015 14:58 24,8 C 24,4 C 69 % 0 lf 1017,7 hPa 0,0 l/m 0 min 0 min 350 W/m 16,7 km/h (3 Bft)
15.07.2015 15:00 24,9 C 24,4 C 69 % 0 lf 1017,7 hPa 0,0 l/m 0 min 0 min 301 W/m 16,7 km/h (3 Bft)
15.07.2015 15:02 24,9 C 23,9 C 69 % 0 lf 1017,7 hPa 0,0 l/m 0 min 0 min 275 W/m 14,6 km/h (3 Bft)
15.07.2015 15:04 25,0 C 23,9 C 69 % 0 lf 1017,7 hPa 0,0 l/m 0 min 0 min 286 W/m 14,6 km/h (3 Bft)
15.07.2015 15:06 25,0 C 23,9 C 69 % 0 lf 1017,7 hPa 0,0 l/m 0 min 0 min 309 W/m 14,6 km/h (3 Bft)
15.07.2015 15:08 25,0 C 23,9 C 69 % 0 lf 1017,7 hPa 0,0 l/m 0 min 0 min 273 W/m 14,6 km/h (3 Bft)
15.07.2015 15:10 25,0 C 23,9 C 69 % 0 lf 1017,7 hPa 0,0 l/m 0 min 0 min 250 W/m 14,6 km/h (3 Bft)
15.07.2015 15:12 25,0 C 23,9 C 68 % 0 lf 1017,7 hPa 0,0 l/m 0 min 0 min 289 W/m 10,5 km/h (2 Bft)
15.07.2015 15:14 25,1 C 23,9 C 68 % 0 lf 1017,7 hPa 0,0 l/m 0 min 0 min 317 W/m 14,6 km/h (3 Bft)
15.07.2015 15:16 25,1 C 23,9 C 68 % 0 lf 1017,7 hPa 0,0 l/m 0 min 0 min 343 W/m 10,5 km/h (2 Bft)
15.07.2015 15:18 25,0 C 23,9 C 68 % 0 lf 1017,7 hPa 0,0 l/m 0 min 0 min 298 W/m 18,8 km/h (3 Bft)
15.07.2015 15:20 25,0 C 23,9 C 69 % 0 lf 1017,6 hPa 0,0 l/m 0 min 0 min 262 W/m 12,6 km/h (3 Bft)
15.07.2015 15:22 25,0 C 23,9 C 69 % 0 lf 1017,6 hPa 0,0 l/m 0 min 0 min 312 W/m 14,6 km/h (3 Bft)
15.07.2015 15:24 25,0 C 23,9 C 68 % 0 lf 1017,6 hPa 0,0 l/m 0 min 0 min 383 W/m 16,7 km/h (3 Bft)
15.07.2015 15:26 25,0 C 24,4 C 69 % 0 lf 1017,6 hPa 0,0 l/m 0 min 0 min 380 W/m 10,5 km/h (2 Bft)
15.07.2015 15:28 25,0 C 24,4 C 69 % 0 lf 1017,6 hPa 0,0 l/m 0 min 0 min 345 W/m 18,8 km/h (3 Bft)
15.07.2015 15:30 25,0 C 23,9 C 69 % 0 lf 1017,6 hPa 0,0 l/m 0 min 0 min 306 W/m 18,8 km/h (3 Bft)
15.07.2015 15:32 25,0 C 23,9 C 69 % 0 lf 1017,6 hPa 0,0 l/m 0 min 0 min 266 W/m 16,7 km/h (3 Bft)
15.07.2015 15:34 24,9 C 23,3 C 68 % 0 lf 1017,6 hPa 0,0 l/m 0 min 0 min 226 W/m 16,7 km/h (3 Bft)
15.07.2015 15:36 24,9 C 23,3 C 69 % 0 lf 1017,6 hPa 0,0 l/m 0 min 0 min 201 W/m 14,6 km/h (3 Bft)
15.07.2015 15:38 24,9 C 23,3 C 69 % 0 lf 1017,6 hPa 0,0 l/m 0 min 0 min 191 W/m 16,7 km/h (3 Bft)
15.07.2015 15:40 24,9 C 22,8 C 69 % 0 lf 1017,6 hPa 0,0 l/m 0 min 0 min 169 W/m 14,6 km/h (3 Bft)
15.07.2015 15:42 24,8 C 22,8 C 69 % 0 lf 1017,6 hPa 0,0 l/m 0 min 0 min 138 W/m 16,7 km/h (3 Bft)
15.07.2015 15:44 24,8 C 22,8 C 69 % 0 lf 1017,6 hPa 0,0 l/m 0 min 0 min 114 W/m 18,8 km/h (3 Bft)
15.07.2015 15:46 24,7 C 22,2 C 69 % 0 lf 1017,6 hPa 0,0 l/m 0 min 0 min 112 W/m 20,9 km/h (4 Bft)
15.07.2015 15:48 24,6 C 22,2 C 69 % 0 lf 1017,6 hPa 0,0 l/m 0 min 0 min 122 W/m 25,1 km/h (4 Bft)
15.07.2015 15:50 24,6 C 22,2 C 69 % 0 lf 1017,6 hPa 0,0 l/m 0 min 0 min 119 W/m 18,8 km/h (3 Bft)
15.07.2015 15:52 24,4 C 22,2 C 70 % 0 lf 1017,6 hPa 0,0 l/m 0 min 0 min 105 W/m 18,8 km/h (3 Bft)
15.07.2015 15:54 24,4 C 21,7 C 70 % 1 lf 1017,7 hPa 0,0 l/m 0 min 0 min 105 W/m 25,1 km/h (4 Bft)
15.07.2015 15:56 24,3 C 21,7 C 71 % 15 lf 1017,7 hPa 0,0 l/m 0 min 2 min 116 W/m 29,3 km/h (5 Bft)
15.07.2015 15:58 24,2 C 19,4 C 72 % 15 lf 1017,8 hPa 0,0 l/m 0 min 2 min 114 W/m 25,1 km/h (4 Bft)
15.07.2015 16:00 24,1 C 19,4 C 74 % 15 lf 1017,8 hPa 0,0 l/m 0 min 2 min 92 W/m 16,7 km/h (3 Bft)
15.07.2015 16:02 24,0 C 18,9 C 75 % 15 lf 1017,9 hPa 0,0 l/m 0 min 2 min 81 W/m 18,8 km/h (3 Bft)
15.07.2015 16:04 23,8 C 18,3 C 76 % 15 lf 1017,9 hPa 0,0 l/m 0 min 2 min 102 W/m 12,6 km/h (3 Bft)
15.07.2015 16:06 23,7 C 18,9 C 77 % 15 lf 1017,9 hPa 0,2 l/m 0 min 2 min 143 W/m 12,6 km/h (3 Bft)
15.07.2015 16:08 23,6 C 18,9 C 78 % 15 lf 1017,9 hPa 0,0 l/m 0 min 2 min 182 W/m 8,4 km/h (2 Bft)
15.07.2015 16:10 23,5 C 18,9 C 79 % 15 lf 1017,9 hPa 0,0 l/m 0 min 2 min 218 W/m 8,4 km/h (2 Bft)
15.07.2015 16:12 23,4 C 19,4 C 79 % 15 lf 1017,8 hPa 0,0 l/m 0 min 2 min 248 W/m 8,4 km/h (2 Bft)
15.07.2015 16:14 23,4 C 19,4 C 81 % 15 lf 1017,9 hPa 0,0 l/m 0 min 0 min 248 W/m 4,2 km/h (1 Bft)
15.07.2015 16:16 23,3 C 19,4 C 82 % 15 lf 1017,9 hPa 0,0 l/m 0 min 2 min 235 W/m 16,7 km/h (3 Bft)
15.07.2015 16:18 23,2 C 19,4 C 81 % 15 lf 1017,9 hPa 0,0 l/m 0 min 0 min 265 W/m 16,7 km/h (3 Bft)
15.07.2015 16:20 23,1 C 19,4 C 82 % 15 lf 1017,9 hPa 0,0 l/m 0 min 0 min 316 W/m 18,8 km/h (3 Bft)
15.07.2015 16:22 23,1 C 19,4 C 82 % 15 lf 1017,8 hPa 0,0 l/m 2 min 0 min 354 W/m 20,9 km/h (4 Bft)
15.07.2015 16:24 23,0 C 20,0 C 82 % 15 lf 1017,9 hPa 0,0 l/m 2 min 0 min 363 W/m 14,6 km/h (3 Bft)
15.07.2015 16:26 22,9 C 20,0 C 83 % 12 lf 1017,9 hPa 0,0 l/m 0 min 0 min 341 W/m 10,5 km/h (2 Bft)
15.07.2015 16:28 22,9 C 20,0 C 84 % 3 lf 1017,8 hPa 0,0 l/m 0 min 0 min 319 W/m 10,5 km/h (2 Bft)
15.07.2015 16:30 22,9 C 20,0 C 84 % 0 lf 1017,9 hPa 0,0 l/m 2 min 0 min 345 W/m 18,8 km/h (3 Bft)
15.07.2015 16:32 22,9 C 20,6 C 84 % 0 lf 1017,8 hPa 0,0 l/m 2 min 0 min 401 W/m 10,5 km/h (2 Bft)
15.07.2015 16:34 22,9 C 20,6 C 84 % 0 lf 1017,8 hPa 0,0 l/m 2 min 0 min 416 W/m 12,6 km/h (3 Bft)
15.07.2015 16:36 22,9 C 21,1 C 84 % 0 lf 1017,9 hPa 0,0 l/m 2 min 0 min 406 W/m 14,6 km/h (3 Bft)
15.07.2015 16:38 23,0 C 21,1 C 84 % 0 lf 1017,8 hPa 0,0 l/m 2 min 0 min 402 W/m 14,6 km/h (3 Bft)
15.07.2015 16:40 23,1 C 21,1 C 84 % 0 lf 1017,8 hPa 0,0 l/m 2 min 0 min 400 W/m 12,6 km/h (3 Bft)
15.07.2015 16:42 23,1 C 21,7 C 83 % 0 lf 1017,8 hPa 0,0 l/m 2 min 0 min 398 W/m 16,7 km/h (3 Bft)
15.07.2015 16:44 23,1 C 22,2 C 83 % 0 lf 1017,8 hPa 0,0 l/m 2 min 0 min 423 W/m 10,5 km/h (2 Bft)
15.07.2015 16:46 23,2 C 22,2 C 83 % 0 lf 1017,8 hPa 0,0 l/m 2 min 0 min 446 W/m 8,4 km/h (2 Bft)
15.07.2015 16:48 23,2 C 22,8 C 83 % 0 lf 1017,8 hPa 0,0 l/m 2 min 0 min 356 W/m 12,6 km/h (3 Bft)
15.07.2015 16:50 23,3 C 22,2 C 83 % 0 lf 1017,7 hPa 0,0 l/m 0 min 0 min 289 W/m 16,7 km/h (3 Bft)
15.07.2015 16:52 23,3 C 22,8 C 82 % 0 lf 1017,7 hPa 0,0 l/m 0 min 0 min 309 W/m 12,6 km/h (3 Bft)
15.07.2015 16:54 23,3 C 22,8 C 82 % 0 lf 1017,7 hPa 0,0 l/m 0 min 0 min 309 W/m 12,6 km/h (3 Bft)
15.07.2015 16:56 23,4 C 22,8 C 81 % 0 lf 1017,7 hPa 0,0 l/m 2 min 0 min 358 W/m 14,6 km/h (3 Bft)
15.07.2015 16:58 23,4 C 23,3 C 81 % 0 lf 1017,6 hPa 0,0 l/m 2 min 0 min 430 W/m 16,7 km/h (3 Bft)
15.07.2015 17:00 23,4 C 23,3 C 81 % 0 lf 1017,6 hPa 0,0 l/m 2 min 0 min 458 W/m 14,6 km/h (3 Bft)
15.07.2015 17:02 23,5 C 23,3 C 81 % 0 lf 1017,6 hPa 0,0 l/m 2 min 0 min 361 W/m 12,6 km/h (3 Bft)
15.07.2015 17:04 23,6 C 23,3 C 81 % 0 lf 1017,6 hPa 0,0 l/m 0 min 0 min 308 W/m 14,6 km/h (3 Bft)
15.07.2015 17:06 23,6 C 22,8 C 80 % 0 lf 1017,6 hPa 0,0 l/m 0 min 0 min 247 W/m 12,6 km/h (3 Bft)
15.07.2015 17:08 23,6 C 22,8 C 80 % 0 lf 1017,6 hPa 0,0 l/m 0 min 0 min 225 W/m 16,7 km/h (3 Bft)
15.07.2015 17:10 23,7 C 22,8 C 80 % 0 lf 1017,6 hPa 0,0 l/m 0 min 0 min 295 W/m 16,7 km/h (3 Bft)
15.07.2015 17:12 23,7 C 23,3 C 81 % 0 lf 1017,6 hPa 0,0 l/m 2 min 0 min 348 W/m 23,0 km/h (4 Bft)
15.07.2015 17:14 23,7 C 23,3 C 80 % 0 lf 1017,6 hPa 0,0 l/m 2 min 0 min 315 W/m 12,6 km/h (3 Bft)
15.07.2015 17:16 23,8 C 23,3 C 80 % 0 lf 1017,6 hPa 0,0 l/m 2 min 0 min 308 W/m 16,7 km/h (3 Bft)
15.07.2015 17:18 23,8 C 23,3 C 80 % 0 lf 1017,6 hPa 0,0 l/m 0 min 0 min 285 W/m 18,8 km/h (3 Bft)
15.07.2015 17:20 23,8 C 23,3 C 79 % 0 lf 1017,6 hPa 0,0 l/m 0 min 0 min 272 W/m 14,6 km/h (3 Bft)
15.07.2015 17:22 23,8 C 22,8 C 79 % 0 lf 1017,6 hPa 0,0 l/m 0 min 0 min 262 W/m 18,8 km/h (3 Bft)
15.07.2015 17:24 23,8 C 22,8 C 79 % 0 lf 1017,6 hPa 0,0 l/m 0 min 0 min 256 W/m 23,0 km/h (4 Bft)
15.07.2015 17:26 23,7 C 22,8 C 79 % 0 lf 1017,5 hPa 0,0 l/m 0 min 0 min 230 W/m 20,9 km/h (4 Bft)
15.07.2015 17:28 23,7 C 22,2 C 79 % 0 lf 1017,6 hPa 0,0 l/m 0 min 0 min 207 W/m 20,9 km/h (4 Bft)
15.07.2015 17:30 23,6 C 22,2 C 78 % 0 lf 1017,6 hPa 0,0 l/m 0 min 0 min 206 W/m 25,1 km/h (4 Bft)
15.07.2015 17:32 23,5 C 21,7 C 77 % 0 lf 1017,6 hPa 0,0 l/m 0 min 0 min 212 W/m 29,3 km/h (5 Bft)
15.07.2015 17:34 23,4 C 21,7 C 78 % 0 lf 1017,6 hPa 0,0 l/m 0 min 0 min 218 W/m 18,8 km/h (3 Bft)
15.07.2015 17:36 23,4 C 21,7 C 78 % 0 lf 1017,5 hPa 0,0 l/m 0 min 0 min 234 W/m 18,8 km/h (3 Bft)
15.07.2015 17:38 23,3 C 22,2 C 78 % 0 lf 1017,5 hPa 0,0 l/m 0 min 0 min 248 W/m 18,8 km/h (3 Bft)
15.07.2015 17:40 23,3 C 22,2 C 79 % 0 lf 1017,5 hPa 0,0 l/m 0 min 0 min 247 W/m 18,8 km/h (3 Bft)
15.07.2015 17:42 23,3 C 22,2 C 79 % 0 lf 1017,5 hPa 0,0 l/m 0 min 0 min 232 W/m 18,8 km/h (3 Bft)
15.07.2015 17:44 23,3 C 22,2 C 79 % 0 lf 1017,5 hPa 0,0 l/m 0 min 0 min 221 W/m 18,8 km/h (3 Bft)
15.07.2015 17:46 23,2 C 22,2 C 79 % 0 lf 1017,5 hPa 0,0 l/m 0 min 0 min 209 W/m 14,6 km/h (3 Bft)
15.07.2015 17:48 23,2 C 22,2 C 80 % 0 lf 1017,5 hPa 0,0 l/m 0 min 0 min 193 W/m 16,7 km/h (3 Bft)
15.07.2015 17:50 23,2 C 22,2 C 79 % 0 lf 1017,5 hPa 0,0 l/m 0 min 0 min 187 W/m 20,9 km/h (4 Bft)
15.07.2015 17:52 23,2 C 22,2 C 79 % 0 lf 1017,5 hPa 0,0 l/m 0 min 0 min 185 W/m 12,6 km/h (3 Bft)
15.07.2015 17:54 23,2 C 22,2 C 80 % 0 lf 1017,5 hPa 0,0 l/m 0 min 0 min 180 W/m 12,6 km/h (3 Bft)
15.07.2015 17:56 23,2 C 22,2 C 80 % 0 lf 1017,5 hPa 0,0 l/m 0 min 0 min 178 W/m 14,6 km/h (3 Bft)
15.07.2015 17:58 23,2 C 22,2 C 80 % 0 lf 1017,5 hPa 0,0 l/m 0 min 0 min 174 W/m 8,4 km/h (2 Bft)
15.07.2015 18:00 23,2 C 22,2 C 80 % 0 lf 1017,5 hPa 0,0 l/m 0 min 0 min 157 W/m 12,6 km/h (3 Bft)
15.07.2015 18:02 23,2 C 21,7 C 79 % 0 lf 1017,5 hPa 0,0 l/m 0 min 0 min 146 W/m 18,8 km/h (3 Bft)
15.07.2015 18:05 23,2 C 21,7 C 78 % 0 lf 1017,5 hPa 0,0 l/m 0 min 0 min 120 W/m 12,6 km/h (3 Bft)
15.07.2015 18:06 23,1 C 21,7 C 78 % 0 lf 1017,5 hPa 0,0 l/m 0 min 0 min 127 W/m 12,6 km/h (3 Bft)
15.07.2015 18:08 23,1 C 21,7 C 77 % 0 lf 1017,5 hPa 0,0 l/m 0 min 0 min 117 W/m 12,6 km/h (3 Bft)
15.07.2015 18:10 23,1 C 21,7 C 78 % 0 lf 1017,5 hPa 0,0 l/m 0 min 0 min 134 W/m 10,5 km/h (2 Bft)
15.07.2015 18:12 23,1 C 21,7 C 78 % 0 lf 1017,5 hPa 0,0 l/m 0 min 0 min 148 W/m 10,5 km/h (2 Bft)
15.07.2015 18:14 23,1 C 21,7 C 78 % 0 lf 1017,5 hPa 0,0 l/m 0 min 0 min 142 W/m 12,6 km/h (3 Bft)
15.07.2015 18:16 23,1 C 21,7 C 78 % 0 lf 1017,5 hPa 0,0 l/m 0 min 0 min 118 W/m 14,6 km/h (3 Bft)
15.07.2015 18:18 23,0 C 21,1 C 77 % 0 lf 1017,5 hPa 0,0 l/m 0 min 0 min 118 W/m 18,8 km/h (3 Bft)
15.07.2015 18:20 22,9 C 21,1 C 77 % 0 lf 1017,5 hPa 0,0 l/m 0 min 0 min 121 W/m 14,6 km/h (3 Bft)
15.07.2015 18:22 22,9 C 21,1 C 77 % 0 lf 1017,5 hPa 0,0 l/m 0 min 0 min 116 W/m 14,6 km/h (3 Bft)
15.07.2015 18:24 22,9 C 21,1 C 77 % 0 lf 1017,5 hPa 0,0 l/m 0 min 0 min 113 W/m 10,5 km/h (2 Bft)
15.07.2015 18:26 22,9 C 21,1 C 78 % 0 lf 1017,5 hPa 0,0 l/m 0 min 0 min 127 W/m 8,4 km/h (2 Bft)
15.07.2015 18:28 22,9 C 21,1 C 78 % 0 lf 1017,5 hPa 0,0 l/m 0 min 0 min 147 W/m 6,3 km/h (2 Bft)
15.07.2015 18:30 22,8 C 21,7 C 78 % 0 lf 1017,5 hPa 0,0 l/m 0 min 0 min 158 W/m 12,6 km/h (3 Bft)
15.07.2015 18:32 22,9 C 21,7 C 78 % 0 lf 1017,5 hPa 0,0 l/m 0 min 0 min 154 W/m 16,7 km/h (3 Bft)
15.07.2015 18:34 22,9 C 21,7 C 78 % 0 lf 1017,5 hPa 0,0 l/m 0 min 0 min 143 W/m 14,6 km/h (3 Bft)
15.07.2015 18:36 22,9 C 21,7 C 78 % 0 lf 1017,5 hPa 0,0 l/m 0 min 0 min 137 W/m 16,7 km/h (3 Bft)
15.07.2015 18:38 22,8 C 21,7 C 78 % 0 lf 1017,5 hPa 0,0 l/m 0 min 0 min 148 W/m 18,8 km/h (3 Bft)
15.07.2015 18:40 22,8 C 21,7 C 78 % 0 lf 1017,5 hPa 0,0 l/m 0 min 0 min 170 W/m 18,8 km/h (3 Bft)
15.07.2015 18:42 22,8 C 21,7 C 78 % 0 lf 1017,5 hPa 0,0 l/m 0 min 0 min 174 W/m 20,9 km/h (4 Bft)
15.07.2015 18:44 22,8 C 21,7 C 79 % 0 lf 1017,5 hPa 0,0 l/m 0 min 0 min 164 W/m 18,8 km/h (3 Bft)
15.07.2015 18:46 22,8 C 21,7 C 79 % 0 lf 1017,4 hPa 0,0 l/m 0 min 0 min 150 W/m 14,6 km/h (3 Bft)
15.07.2015 18:48 22,8 C 21,7 C 79 % 0 lf 1017,4 hPa 0,0 l/m 0 min 0 min 137 W/m 23,0 km/h (4 Bft)
15.07.2015 18:50 22,8 C 21,7 C 78 % 0 lf 1017,4 hPa 0,0 l/m 0 min 0 min 115 W/m 14,6 km/h (3 Bft)
15.07.2015 18:52 22,8 C 21,1 C 79 % 0 lf 1017,4 hPa 0,0 l/m 0 min 0 min 94 W/m 14,6 km/h (3 Bft)
15.07.2015 18:54 22,8 C 21,1 C 79 % 0 lf 1017,4 hPa 0,0 l/m 0 min 0 min 97 W/m 18,8 km/h (3 Bft)
15.07.2015 18:56 22,8 C 21,1 C 79 % 0 lf 1017,2 hPa 0,0 l/m 0 min 0 min 124 W/m 14,6 km/h (3 Bft)
15.07.2015 18:58 22,8 C 21,7 C 79 % 0 lf 1017,3 hPa 0,0 l/m 0 min 0 min 165 W/m 14,6 km/h (3 Bft)
15.07.2015 19:00 22,8 C 21,7 C 79 % 0 lf 1017,2 hPa 0,0 l/m 2 min 0 min 242 W/m 8,4 km/h (2 Bft)
15.07.2015 19:02 22,8 C 21,7 C 79 % 0 lf 1017,2 hPa 0,0 l/m 2 min 0 min 206 W/m 14,6 km/h (3 Bft)
15.07.2015 19:04 22,8 C 21,7 C 79 % 0 lf 1017,2 hPa 0,0 l/m 2 min 0 min 189 W/m 10,5 km/h (2 Bft)
15.07.2015 19:06 22,8 C 21,7 C 80 % 0 lf 1017,2 hPa 0,0 l/m 0 min 0 min 175 W/m 10,5 km/h (2 Bft)
15.07.2015 19:08 22,8 C 21,7 C 80 % 0 lf 1017,2 hPa 0,0 l/m 0 min 0 min 168 W/m 8,4 km/h (2 Bft)
15.07.2015 19:10 22,9 C 21,7 C 80 % 0 lf 1017,2 hPa 0,0 l/m 0 min 0 min 163 W/m 10,5 km/h (2 Bft)
15.07.2015 19:12 22,9 C 21,7 C 80 % 0 lf 1017,2 hPa 0,0 l/m 0 min 0 min 160 W/m 14,6 km/h (3 Bft)
15.07.2015 19:14 22,9 C 21,7 C 79 % 0 lf 1017,2 hPa 0,0 l/m 0 min 0 min 151 W/m 16,7 km/h (3 Bft)
15.07.2015 19:16 22,9 C 21,7 C 79 % 0 lf 1017,2 hPa 0,0 l/m 0 min 0 min 141 W/m 10,5 km/h (2 Bft)
15.07.2015 19:18 22,9 C 21,7 C 79 % 0 lf 1017,2 hPa 0,0 l/m 0 min 0 min 134 W/m 23,0 km/h (4 Bft)
15.07.2015 19:20 22,9 C 21,7 C 79 % 0 lf 1017,1 hPa 0,0 l/m 0 min 0 min 124 W/m 23,0 km/h (4 Bft)
15.07.2015 19:22 22,9 C 21,7 C 79 % 0 lf 1017,2 hPa 0,0 l/m 0 min 0 min 112 W/m 20,9 km/h (4 Bft)
15.07.2015 19:24 22,9 C 21,7 C 79 % 0 lf 1017,1 hPa 0,0 l/m 0 min 0 min 104 W/m 20,9 km/h (4 Bft)
15.07.2015 19:26 22,9 C 21,1 C 80 % 0 lf 1017,1 hPa 0,0 l/m 0 min 0 min 104 W/m 16,7 km/h (3 Bft)
15.07.2015 19:28 22,9 C 21,1 C 80 % 0 lf 1017,1 hPa 0,0 l/m 0 min 0 min 106 W/m 12,6 km/h (3 Bft)
15.07.2015 19:30 22,8 C 21,1 C 80 % 0 lf 1017,1 hPa 0,0 l/m 0 min 0 min 100 W/m 16,7 km/h (3 Bft)
15.07.2015 19:32 22,8 C 21,1 C 80 % 0 lf 1017,1 hPa 0,0 l/m 0 min 0 min 85 W/m 16,7 km/h (3 Bft)
15.07.2015 19:34 22,8 C 21,1 C 80 % 0 lf 1017,1 hPa 0,0 l/m 0 min 0 min 68 W/m 14,6 km/h (3 Bft)
15.07.2015 19:36 22,8 C 21,1 C 80 % 0 lf 1017,1 hPa 0,0 l/m 0 min 0 min 57 W/m 10,5 km/h (2 Bft)
15.07.2015 19:38 22,8 C 21,1 C 80 % 0 lf 1017,0 hPa 0,0 l/m 0 min 0 min 53 W/m 12,6 km/h (3 Bft)
15.07.2015 19:40 22,8 C 21,1 C 80 % 0 lf 1017,1 hPa 0,0 l/m 0 min 0 min 49 W/m 14,6 km/h (3 Bft)
15.07.2015 19:42 22,8 C 21,1 C 80 % 0 lf 1017,0 hPa 0,0 l/m 0 min 0 min 44 W/m 10,5 km/h (2 Bft)
15.07.2015 19:44 22,7 C 20,6 C 80 % 0 lf 1017,1 hPa 0,0 l/m 0 min 0 min 47 W/m 10,5 km/h (2 Bft)
15.07.2015 19:46 22,7 C 20,6 C 80 % 0 lf 1017,0 hPa 0,0 l/m 0 min 0 min 52 W/m 16,7 km/h (3 Bft)
15.07.2015 19:48 22,7 C 20,6 C 81 % 0 lf 1017,0 hPa 0,0 l/m 0 min 0 min 58 W/m 20,9 km/h (4 Bft)
15.07.2015 19:50 22,6 C 20,6 C 80 % 0 lf 1017,1 hPa 0,0 l/m 0 min 0 min 63 W/m 14,6 km/h (3 Bft)
15.07.2015 19:52 22,6 C 21,1 C 80 % 0 lf 1017,0 hPa 0,0 l/m 0 min 0 min 58 W/m 18,8 km/h (3 Bft)
15.07.2015 19:54 22,6 C 20,6 C 80 % 0 lf 1017,1 hPa 0,0 l/m 0 min 0 min 45 W/m 10,5 km/h (2 Bft)
15.07.2015 19:56 22,6 C 20,6 C 80 % 0 lf 1017,1 hPa 0,0 l/m 0 min 0 min 34 W/m 10,5 km/h (2 Bft)
15.07.2015 19:58 22,6 C 20,6 C 80 % 0 lf 1017,1 hPa 0,0 l/m 0 min 0 min 25 W/m 12,6 km/h (3 Bft)
15.07.2015 20:00 22,5 C 20,6 C 80 % 0 lf 1017,1 hPa 0,0 l/m 0 min 0 min 23 W/m 8,4 km/h (2 Bft)
15.07.2015 20:02 22,5 C 20,6 C 80 % 0 lf 1017,1 hPa 0,0 l/m 0 min 0 min 28 W/m 8,4 km/h (2 Bft)
15.07.2015 20:04 22,5 C 20,6 C 80 % 0 lf 1017,1 hPa 0,0 l/m 0 min 0 min 32 W/m 16,7 km/h (3 Bft)
15.07.2015 20:06 22,4 C 20,6 C 80 % 0 lf 1017,1 hPa 0,0 l/m 0 min 0 min 36 W/m 16,7 km/h (3 Bft)
15.07.2015 20:08 22,4 C 20,6 C 81 % 0 lf 1017,1 hPa 0,0 l/m 0 min 0 min 42 W/m 10,5 km/h (2 Bft)
15.07.2015 20:10 22,4 C 20,6 C 81 % 0 lf 1017,1 hPa 0,0 l/m 0 min 0 min 48 W/m 14,6 km/h (3 Bft)
15.07.2015 20:12 22,4 C 20,6 C 81 % 0 lf 1017,1 hPa 0,0 l/m 0 min 0 min 59 W/m 10,5 km/h (2 Bft)
15.07.2015 20:14 22,3 C 20,6 C 81 % 0 lf 1017,1 hPa 0,0 l/m 0 min 0 min 70 W/m 8,4 km/h (2 Bft)
15.07.2015 20:16 22,3 C 20,6 C 81 % 0 lf 1017,1 hPa 0,0 l/m 0 min 0 min 81 W/m 6,3 km/h (2 Bft)
15.07.2015 20:18 22,3 C 20,6 C 82 % 0 lf 1017,1 hPa 0,0 l/m 0 min 0 min 84 W/m 8,4 km/h (2 Bft)
15.07.2015 20:20 22,3 C 20,6 C 82 % 0 lf 1017,1 hPa 0,0 l/m 0 min 0 min 81 W/m 12,6 km/h (3 Bft)
15.07.2015 20:22 22,3 C 20,6 C 82 % 0 lf 1017,1 hPa 0,0 l/m 0 min 0 min 69 W/m 16,7 km/h (3 Bft)
15.07.2015 20:24 22,3 C 20,6 C 82 % 0 lf 1017,1 hPa 0,0 l/m 0 min 0 min 62 W/m 14,6 km/h (3 Bft)
15.07.2015 20:26 22,3 C 20,6 C 82 % 0 lf 1017,1 hPa 0,0 l/m 0 min 0 min 64 W/m 18,8 km/h (3 Bft)
15.07.2015 20:28 22,3 C 20,6 C 82 % 0 lf 1017,2 hPa 0,0 l/m 0 min 0 min 63 W/m 12,6 km/h (3 Bft)
15.07.2015 20:30 22,3 C 20,6 C 82 % 0 lf 1017,2 hPa 0,0 l/m 0 min 0 min 50 W/m 14,6 km/h (3 Bft)
15.07.2015 20:32 22,3 C 20,6 C 82 % 0 lf 1017,2 hPa 0,0 l/m 0 min 0 min 34 W/m 8,4 km/h (2 Bft)
15.07.2015 20:34 22,2 C 20,6 C 82 % 0 lf 1017,2 hPa 0,0 l/m 0 min 0 min 30 W/m 8,4 km/h (2 Bft)
15.07.2015 20:36 22,2 C 20,6 C 82 % 0 lf 1017,2 hPa 0,0 l/m 0 min 0 min 29 W/m 8,4 km/h (2 Bft)
15.07.2015 20:38 22,2 C 20,6 C 82 % 0 lf 1017,2 hPa 0,0 l/m 0 min 0 min 35 W/m 10,5 km/h (2 Bft)
15.07.2015 20:40 22,2 C 20,6 C 82 % 0 lf 1017,3 hPa 0,0 l/m 0 min 0 min 44 W/m 10,5 km/h (2 Bft)
15.07.2015 20:42 22,2 C 20,6 C 83 % 0 lf 1017,2 hPa 0,0 l/m 0 min 0 min 42 W/m 10,5 km/h (2 Bft)
15.07.2015 20:44 22,2 C 20,6 C 83 % 0 lf 1017,2 hPa 0,0 l/m 0 min 0 min 38 W/m 8,4 km/h (2 Bft)
15.07.2015 20:46 22,2 C 20,6 C 83 % 0 lf 1017,2 hPa 0,0 l/m 0 min 0 min 32 W/m 8,4 km/h (2 Bft)
15.07.2015 20:48 22,2 C 20,0 C 83 % 0 lf 1017,2 hPa 0,0 l/m 0 min 0 min 31 W/m 4,2 km/h (1 Bft)
15.07.2015 20:50 22,2 C 20,0 C 84 % 0 lf 1017,2 hPa 0,0 l/m 0 min 0 min 34 W/m 6,3 km/h (2 Bft)
15.07.2015 20:52 22,2 C 20,0 C 84 % 0 lf 1017,1 hPa 0,0 l/m 0 min 0 min 39 W/m 8,4 km/h (2 Bft)
15.07.2015 20:54 22,1 C 20,0 C 84 % 0 lf 1017,2 hPa 0,0 l/m 0 min 0 min 39 W/m 6,3 km/h (2 Bft)
15.07.2015 20:56 22,1 C 20,0 C 84 % 0 lf 1017,1 hPa 0,0 l/m 0 min 0 min 39 W/m 6,3 km/h (2 Bft)
15.07.2015 20:58 22,1 C 20,0 C 84 % 0 lf 1017,1 hPa 0,0 l/m 0 min 0 min 41 W/m 8,4 km/h (2 Bft)
15.07.2015 21:00 22,1 C 20,0 C 85 % 0 lf 1017,1 hPa 0,0 l/m 0 min 0 min 36 W/m 6,3 km/h (2 Bft)
15.07.2015 21:02 22,1 C 20,0 C 85 % 0 lf 1017,1 hPa 0,0 l/m 0 min 0 min 30 W/m 6,3 km/h (2 Bft)
15.07.2015 21:04 22,0 C 20,0 C 85 % 0 lf 1017,1 hPa 0,0 l/m 0 min 0 min 28 W/m 8,4 km/h (2 Bft)
15.07.2015 21:06 22,0 C 20,0 C 85 % 0 lf 1017,1 hPa 0,0 l/m 0 min 0 min 28 W/m 6,3 km/h (2 Bft)
15.07.2015 21:08 21,9 C 20,0 C 85 % 0 lf 1017,1 hPa 0,0 l/m 0 min 0 min 31 W/m 6,3 km/h (2 Bft)
15.07.2015 21:10 21,9 C 20,0 C 85 % 0 lf 1017,2 hPa 0,0 l/m 2 min 0 min 32 W/m 10,5 km/h (2 Bft)
15.07.2015 21:12 21,9 C 20,0 C 85 % 0 lf 1017,2 hPa 0,0 l/m 2 min 0 min 32 W/m 10,5 km/h (2 Bft)
15.07.2015 21:14 21,9 C 20,0 C 85 % 0 lf 1017,2 hPa 0,0 l/m 2 min 0 min 34 W/m 8,4 km/h (2 Bft)
15.07.2015 21:16 21,8 C 20,0 C 86 % 0 lf 1017,2 hPa 0,0 l/m 2 min 0 min 37 W/m 6,3 km/h (2 Bft)
15.07.2015 21:18 21,8 C 20,0 C 86 % 0 lf 1017,1 hPa 0,0 l/m 2 min 0 min 36 W/m 10,5 km/h (2 Bft)
15.07.2015 21:20 21,8 C 20,0 C 86 % 0 lf 1017,2 hPa 0,0 l/m 2 min 0 min 29 W/m 8,4 km/h (2 Bft)
15.07.2015 21:22 21,7 C 20,0 C 86 % 0 lf 1017,2 hPa 0,0 l/m 2 min 0 min 25 W/m 8,4 km/h (2 Bft)
15.07.2015 21:24 21,7 C 20,0 C 86 % 0 lf 1017,1 hPa 0,0 l/m 2 min 0 min 21 W/m 4,2 km/h (1 Bft)
15.07.2015 21:26 21,7 C 19,4 C 86 % 0 lf 1017,2 hPa 0,0 l/m 0 min 0 min 18 W/m 6,3 km/h (2 Bft)
15.07.2015 21:28 21,7 C 19,4 C 86 % 0 lf 1017,2 hPa 0,0 l/m 0 min 0 min 15 W/m 4,2 km/h (1 Bft)
15.07.2015 21:30 21,6 C 19,4 C 86 % 0 lf 1017,1 hPa 0,0 l/m 0 min 0 min 12 W/m 4,2 km/h (1 Bft)
15.07.2015 21:32 21,6 C 19,4 C 86 % 0 lf 1017,1 hPa 0,0 l/m 0 min 0 min 11 W/m 6,3 km/h (2 Bft)
15.07.2015 21:34 21,6 C 19,4 C 86 % 0 lf 1017,2 hPa 0,0 l/m 0 min 0 min 9 W/m 4,2 km/h (1 Bft)
15.07.2015 21:36 21,6 C 19,4 C 87 % 0 lf 1017,2 hPa 0,0 l/m 0 min 0 min 9 W/m 4,2 km/h (1 Bft)
15.07.2015 21:38 21,5 C 19,4 C 87 % 0 lf 1017,2 hPa 0,0 l/m 0 min 0 min 8 W/m 6,3 km/h (2 Bft)
15.07.2015 21:40 21,5 C 19,4 C 87 % 0 lf 1017,3 hPa 0,0 l/m 0 min 0 min 7 W/m 4,2 km/h (1 Bft)
15.07.2015 21:42 21,4 C 19,4 C 86 % 0 lf 1017,2 hPa 0,0 l/m 0 min 0 min 7 W/m 4,2 km/h (1 Bft)
15.07.2015 21:44 21,4 C 19,4 C 86 % 0 lf 1017,3 hPa 0,0 l/m 0 min 0 min 5 W/m 6,3 km/h (2 Bft)
15.07.2015 21:46 21,4 C 19,4 C 86 % 0 lf 1017,3 hPa 0,0 l/m 0 min 0 min 5 W/m 6,3 km/h (2 Bft)
15.07.2015 21:48 21,4 C 19,4 C 87 % 0 lf 1017,3 hPa 0,0 l/m 0 min 0 min 5 W/m 4,2 km/h (1 Bft)
15.07.2015 21:50 21,3 C 19,4 C 87 % 0 lf 1017,3 hPa 0,0 l/m 0 min 0 min 5 W/m 6,3 km/h (2 Bft)
15.07.2015 21:52 21,3 C 19,4 C 87 % 0 lf 1017,4 hPa 0,0 l/m 0 min 0 min 5 W/m 4,2 km/h (1 Bft)
15.07.2015 21:54 21,3 C 19,4 C 87 % 0 lf 1017,5 hPa 0,0 l/m 0 min 0 min 1 W/m 2,1 km/h (1 Bft)
15.07.2015 21:56 21,3 C 19,4 C 87 % 0 lf 1017,6 hPa 0,0 l/m 0 min 0 min 0 W/m 2,1 km/h (1 Bft)
15.07.2015 21:58 21,3 C 19,4 C 87 % 0 lf 1017,6 hPa 0,0 l/m 0 min 0 min 0 W/m 2,1 km/h (1 Bft)
15.07.2015 22:00 21,2 C 18,9 C 87 % 0 lf 1017,6 hPa 0,0 l/m 0 min 0 min 0 W/m 6,3 km/h (2 Bft)
15.07.2015 22:02 21,2 C 18,9 C 87 % 0 lf 1017,7 hPa 0,0 l/m 0 min 0 min 0 W/m 6,3 km/h (2 Bft)
15.07.2015 22:04 21,2 C 18,9 C 87 % 0 lf 1017,7 hPa 0,0 l/m 0 min 0 min 0 W/m 6,3 km/h (2 Bft)
15.07.2015 22:06 21,2 C 18,9 C 87 % 0 lf 1017,6 hPa 0,0 l/m 0 min 0 min 0 W/m 4,2 km/h (1 Bft)
15.07.2015 22:08 21,2 C 18,9 C 87 % 0 lf 1017,6 hPa 0,0 l/m 0 min 0 min 0 W/m 6,3 km/h (2 Bft)
15.07.2015 22:10 21,2 C 18,9 C 87 % 0 lf 1017,6 hPa 0,0 l/m 0 min 0 min 0 W/m 6,3 km/h (2 Bft)
15.07.2015 22:12 21,1 C 18,9 C 87 % 0 lf 1017,6 hPa 0,0 l/m 0 min 0 min 0 W/m 4,2 km/h (1 Bft)
15.07.2015 22:14 21,1 C 18,9 C 87 % 0 lf 1017,6 hPa 0,0 l/m 0 min 0 min 0 W/m 4,2 km/h (1 Bft)
15.07.2015 22:16 21,1 C 18,9 C 88 % 0 lf 1017,6 hPa 0,0 l/m 0 min 0 min 0 W/m 4,2 km/h (1 Bft)
15.07.2015 22:18 21,1 C 18,9 C 87 % 0 lf 1017,6 hPa 0,0 l/m 0 min 0 min 0 W/m 6,3 km/h (2 Bft)
15.07.2015 22:20 21,1 C 18,9 C 87 % 0 lf 1017,6 hPa 0,0 l/m 0 min 0 min 0 W/m 4,2 km/h (1 Bft)
15.07.2015 22:22 21,0 C 18,9 C 88 % 0 lf 1017,6 hPa 0,0 l/m 0 min 0 min 0 W/m 2,1 km/h (1 Bft)
15.07.2015 22:24 21,0 C 18,9 C 88 % 0 lf 1017,6 hPa 0,0 l/m 0 min 0 min 0 W/m 4,2 km/h (1 Bft)
15.07.2015 22:26 21,0 C 18,9 C 88 % 0 lf 1017,7 hPa 0,0 l/m 0 min 0 min 0 W/m 4,2 km/h (1 Bft)
15.07.2015 22:28 21,0 C 18,9 C 88 % 0 lf 1017,7 hPa 0,0 l/m 0 min 0 min 0 W/m 4,2 km/h (1 Bft)
15.07.2015 22:30 20,9 C 18,9 C 88 % 0 lf 1017,6 hPa 0,0 l/m 0 min 0 min 0 W/m 4,2 km/h (1 Bft)
15.07.2015 22:32 20,9 C 18,9 C 88 % 0 lf 1017,6 hPa 0,0 l/m 0 min 0 min 0 W/m 4,2 km/h (1 Bft)
15.07.2015 22:34 20,9 C 18,9 C 88 % 0 lf 1017,6 hPa 0,0 l/m 0 min 0 min 0 W/m 0,0 km/h (0 Bft)
15.07.2015 22:36 20,9 C 18,9 C 88 % 0 lf 1017,6 hPa 0,0 l/m 0 min 0 min 0 W/m 4,2 km/h (1 Bft)
15.07.2015 22:38 20,9 C 18,9 C 88 % 0 lf 1017,6 hPa 0,0 l/m 0 min 0 min 0 W/m 4,2 km/h (1 Bft)
15.07.2015 22:40 20,9 C 18,9 C 89 % 0 lf 1017,6 hPa 0,0 l/m 0 min 0 min 0 W/m 4,2 km/h (1 Bft)
15.07.2015 22:42 20,8 C 18,9 C 89 % 0 lf 1017,6 hPa 0,0 l/m 0 min 0 min 0 W/m 0,0 km/h (0 Bft)
15.07.2015 22:44 20,8 C 18,9 C 89 % 0 lf 1017,7 hPa 0,0 l/m 0 min 0 min 0 W/m 0,0 km/h (0 Bft)
15.07.2015 22:46 20,8 C 18,9 C 89 % 0 lf 1017,6 hPa 0,0 l/m 0 min 0 min 0 W/m 0,0 km/h (0 Bft)
15.07.2015 22:48 20,8 C 18,9 C 89 % 0 lf 1017,6 hPa 0,0 l/m 0 min 0 min 0 W/m 0,0 km/h (0 Bft)
15.07.2015 22:50 20,8 C 18,9 C 89 % 0 lf 1017,7 hPa 0,0 l/m 0 min 0 min 0 W/m 0,0 km/h (0 Bft)
15.07.2015 22:52 20,7 C 18,9 C 89 % 0 lf 1017,7 hPa 0,0 l/m 0 min 0 min 0 W/m 0,0 km/h (0 Bft)
15.07.2015 22:54 20,7 C 18,3 C 89 % 0 lf 1017,7 hPa 0,0 l/m 0 min 0 min 0 W/m 0,0 km/h (0 Bft)
15.07.2015 22:56 20,7 C 18,3 C 89 % 0 lf 1017,7 hPa 0,0 l/m 0 min 0 min 0 W/m 0,0 km/h (0 Bft)
15.07.2015 22:58 20,7 C 18,3 C 89 % 0 lf 1017,7 hPa 0,0 l/m 0 min 0 min 0 W/m 0,0 km/h (0 Bft)
15.07.2015 23:00 20,7 C 18,3 C 89 % 0 lf 1017,7 hPa 0,0 l/m 0 min 0 min 0 W/m 0,0 km/h (0 Bft)
15.07.2015 23:02 20,6 C 18,3 C 89 % 0 lf 1017,7 hPa 0,0 l/m 0 min 0 min 0 W/m 0,0 km/h (0 Bft)
15.07.2015 23:04 20,6 C 18,9 C 89 % 0 lf 1017,7 hPa 0,0 l/m 0 min 0 min 0 W/m 0,0 km/h (0 Bft)
15.07.2015 23:06 20,6 C 18,9 C 89 % 0 lf 1017,7 hPa 0,0 l/m 0 min 0 min 0 W/m 0,0 km/h (0 Bft)
15.07.2015 23:08 20,6 C 18,3 C 89 % 0 lf 1017,8 hPa 0,0 l/m 0 min 0 min 0 W/m 0,0 km/h (0 Bft)
15.07.2015 23:10 20,6 C 18,3 C 89 % 0 lf 1017,7 hPa 0,0 l/m 0 min 0 min 0 W/m 0,0 km/h (0 Bft)
15.07.2015 23:12 20,6 C 18,3 C 89 % 0 lf 1017,8 hPa 0,0 l/m 0 min 0 min 0 W/m 0,0 km/h (0 Bft)
15.07.2015 23:14 20,6 C 18,3 C 89 % 0 lf 1017,8 hPa 0,0 l/m 0 min 0 min 0 W/m 0,0 km/h (0 Bft)
15.07.2015 23:16 20,5 C 18,3 C 89 % 0 lf 1017,8 hPa 0,0 l/m 0 min 0 min 0 W/m 0,0 km/h (0 Bft)
15.07.2015 23:18 20,5 C 18,3 C 89 % 0 lf 1017,8 hPa 0,0 l/m 0 min 0 min 0 W/m 0,0 km/h (0 Bft)
15.07.2015 23:20 20,5 C 18,3 C 89 % 0 lf 1017,8 hPa 0,0 l/m 0 min 0 min 0 W/m 0,0 km/h (0 Bft)
15.07.2015 23:22 20,4 C 18,3 C 89 % 0 lf 1017,8 hPa 0,0 l/m 0 min 0 min 0 W/m 0,0 km/h (0 Bft)
15.07.2015 23:24 20,4 C 18,3 C 89 % 0 lf 1017,8 hPa 0,0 l/m 0 min 0 min 0 W/m 0,0 km/h (0 Bft)
15.07.2015 23:26 20,4 C 18,3 C 89 % 0 lf 1017,8 hPa 0,0 l/m 0 min 0 min 0 W/m 0,0 km/h (0 Bft)
15.07.2015 23:28 20,4 C 18,3 C 90 % 0 lf 1017,8 hPa 0,0 l/m 0 min 0 min 0 W/m 0,0 km/h (0 Bft)
15.07.2015 23:30 20,4 C 18,3 C 90 % 0 lf 1017,8 hPa 0,0 l/m 0 min 0 min 0 W/m 0,0 km/h (0 Bft)
15.07.2015 23:32 20,4 C 18,3 C 90 % 0 lf 1017,8 hPa 0,0 l/m 0 min 0 min 0 W/m 0,0 km/h (0 Bft)
15.07.2015 23:34 20,4 C 18,3 C 90 % 0 lf 1017,8 hPa 0,0 l/m 0 min 0 min 0 W/m 0,0 km/h (0 Bft)
15.07.2015 23:36 20,4 C 18,3 C 90 % 0 lf 1017,8 hPa 0,0 l/m 0 min 0 min 0 W/m 0,0 km/h (0 Bft)
15.07.2015 23:38 20,4 C 18,3 C 90 % 0 lf 1017,8 hPa 0,0 l/m 0 min 0 min 0 W/m 0,0 km/h (0 Bft)
15.07.2015 23:40 20,3 C 18,3 C 90 % 0 lf 1017,8 hPa 0,0 l/m 0 min 0 min 0 W/m 0,0 km/h (0 Bft)
15.07.2015 23:42 20,3 C 18,3 C 90 % 0 lf 1017,8 hPa 0,0 l/m 0 min 0 min 0 W/m 0,0 km/h (0 Bft)
15.07.2015 23:44 20,3 C 18,3 C 90 % 0 lf 1017,8 hPa 0,0 l/m 0 min 0 min 0 W/m 0,0 km/h (0 Bft)
15.07.2015 23:46 20,3 C 18,3 C 90 % 0 lf 1017,8 hPa 0,0 l/m 0 min 0 min 0 W/m 0,0 km/h (0 Bft)
15.07.2015 23:48 20,3 C 18,3 C 90 % 1 lf 1017,8 hPa 0,0 l/m 0 min 0 min 0 W/m 0,0 km/h (0 Bft)
15.07.2015 23:50 20,3 C 18,3 C 90 % 0 lf 1017,8 hPa 0,0 l/m 0 min 0 min 0 W/m 0,0 km/h (0 Bft)
15.07.2015 23:52 20,3 C 18,3 C 90 % 0 lf 1017,8 hPa 0,0 l/m 0 min 0 min 0 W/m 0,0 km/h (0 Bft)
15.07.2015 23:54 20,2 C 18,3 C 90 % 0 lf 1017,8 hPa 0,0 l/m 0 min 0 min 0 W/m 0,0 km/h (0 Bft)
15.07.2015 23:56 20,2 C 18,3 C 90 % 0 lf 1017,9 hPa 0,0 l/m 0 min 0 min 0 W/m 0,0 km/h (0 Bft)
15.07.2015 23:58 20,2 C 18,3 C 90 % 0 lf 1017,8 hPa 0,0 l/m 0 min 0 min 0 W/m 0,0 km/h (0 Bft)
_ Min-Zeit 05:58 00:26 12:18 07:00 19:38 - - - - 05:02
Minimum _ 16,9 C 15,0 C 66 % 0 lf 1017,0 hPa - - - - 0,0 km/h (0 Bft)
_ Max-Zeit 15:12 11:52 02:16 15:56 03:20 16:06 09:28 15:56 12:46 12:20
Maximum _ 25,1 C 27,2 C 95 % 15 lf 1019,3 hPa 0,2 l/m 2 min 2 min 972 W/m 29,3 km/h
S (5 Bft)
Durchschnitt _ 20,5 C 19,4 C 85 % 1 lf 1018,4 hPa #0,2 l/m #3:29 h #20 min. 220 W/m 9,5 km/h (2 Bft)
© 2015 W. Hausmann